Observation data for Estelline on 11/19/2019      Previous  Date       Current Mesonet Observations  Soil Data  Daily Summary Page  Observations in Plain Language
KES1 190600Z 00002KT 10/M01 A2993 RMK A01 T01001011  RH  046%=      5-min Rain = 0
KES1 190601Z 00002KT 10/M01 A2993 RMK A01 T01001011  RH  046%=      5-min Rain = 0
KES1 190602Z 01002KT 10/M01 A2993 RMK A01 T01001011  RH  046%=      5-min Rain = 0
KES1 190603Z 01002KT 10/M01 A2993 RMK A01 T00991011  RH  046%=      5-min Rain = 0
KES1 190604Z 02002KT 10/M01 A2993 RMK A01 T00981011  RH  047%=      5-min Rain = 0
KES1 190605Z 03002KT 10/M01 A2993 RMK A01 T00961012  RH  047%=      5-min Rain = 0
KES1 190606Z 02001KT 09/M01 A2993 RMK A01 T00941012  RH  048%=      5-min Rain = 0
KES1 190607Z 02002KT 09/M01 A2993 RMK A01 T00941011  RH  048%=      5-min Rain = 0
KES1 190608Z 01001KT 09/M01 A2993 RMK A01 T00941011  RH  048%=      5-min Rain = 0
KES1 190609Z 01001KT 09/M01 A2993 RMK A01 T00941011  RH  048%=      5-min Rain = 0
KES1 190610Z 00001KT 09/M01 A2993 RMK A01 T00941011  RH  048%=      5-min Rain = 0
KES1 190611Z 36001KT 10/M01 A2993 RMK A01 T00951011  RH  048%=      5-min Rain = 0
KES1 190612Z 00001KT 10/M01 A2993 RMK A01 T00951011  RH  048%=      5-min Rain = 0
KES1 190613Z 36001KT 10/M01 A2993 RMK A01 T00951011  RH  047%=      5-min Rain = 0
KES1 190614Z 00001KT 10/M01 A2993 RMK A01 T00951011  RH  047%=      5-min Rain = 0
KES1 190615Z 36001KT 10/M01 A2993 RMK A01 T00961011  RH  047%=      5-min Rain = 0
KES1 190616Z 00001KT 10/M01 A2993 RMK A01 T00961011  RH  047%=      5-min Rain = 0
KES1 190617Z 35001KT 10/M01 A2993 RMK A01 T00961011  RH  047%=      5-min Rain = 0
KES1 190618Z 35001KT 10/M01 A2993 RMK A01 T00951012  RH  047%=      5-min Rain = 0
KES1 190619Z 36001KT 09/M01 A2992 RMK A01 T00941012  RH  048%=      5-min Rain = 0
KES1 190620Z 35001KT 09/M01 A2992 RMK A01 T00931012  RH  048%=      5-min Rain = 0
KES1 190621Z 34001KT 09/M01 A2992 RMK A01 T00911012  RH  048%=      5-min Rain = 0
KES1 190622Z 33001KT 09/M01 A2992 RMK A01 T00901013  RH  049%=      5-min Rain = 0
KES1 190623Z 33001KT 09/M01 A2993 RMK A01 T00891012  RH  049%=      5-min Rain = 0
KES1 190624Z 33001KT 09/M01 A2993 RMK A01 T00891012  RH  049%=      5-min Rain = 0
KES1 190625Z 33000KT 09/M01 A2993 RMK A01 T00881012  RH  050%=      5-min Rain = 0
KES1 190626Z 00000KT 09/M01 A2993 RMK A01 T00871012  RH  050%=      5-min Rain = 0
KES1 190627Z 24000KT 09/M01 A2993 RMK A01 T00871011  RH  050%=      5-min Rain = 0
KES1 190628Z 24000KT 09/M01 A2993 RMK A01 T00871012  RH  050%=      5-min Rain = 0
KES1 190629Z 24001KT 09/M01 A2993 RMK A01 T00881011  RH  050%=      5-min Rain = 0
KES1 190630Z 24001KT 09/M01 A2993 RMK A01 T00881011  RH  050%=      5-min Rain = 0
KES1 190631Z 24002KT 09/M01 A2993 RMK A01 T00901010  RH  049%=      5-min Rain = 0
KES1 190632Z 24002KT 09/M01 A2993 RMK A01 T00931010  RH  049%=      5-min Rain = 0
KES1 190633Z 24002KT 09/M01 A2993 RMK A01 T00941011  RH  048%=      5-min Rain = 0
KES1 190634Z 24002KT 09/M01 A2993 RMK A01 T00931012  RH  048%=      5-min Rain = 0
KES1 190635Z 24002KT 09/M01 A2993 RMK A01 T00901013  RH  048%=      5-min Rain = 0
KES1 190636Z 24002KT 09/M01 A2993 RMK A01 T00881013  RH  049%=      5-min Rain = 0
KES1 190637Z 23003KT 09/M01 A2993 RMK A01 T00861013  RH  050%=      5-min Rain = 0
KES1 190638Z 22003KT 09/M01 A2993 RMK A01 T00851013  RH  050%=      5-min Rain = 0
KES1 190639Z 23003KT 08/M01 A2993 RMK A01 T00831013  RH  051%=      5-min Rain = 0
KES1 190640Z 24003KT 08/M01 A2993 RMK A01 T00811014  RH  051%=      5-min Rain = 0
KES1 190641Z 24004KT 08/M01 A2993 RMK A01 T00821012  RH  052%=      5-min Rain = 0
KES1 190642Z 23003KT 08/M01 A2993 RMK A01 T00831012  RH  051%=      5-min Rain = 0
KES1 190643Z 23004KT 08/M01 A2993 RMK A01 T00831012  RH  051%=      5-min Rain = 0
KES1 190644Z 23004KT 09/M01 A2993 RMK A01 T00851012  RH  051%=      5-min Rain = 0
KES1 190645Z 22004KT 09/M01 A2993 RMK A01 T00871011  RH  050%=      5-min Rain = 0
KES1 190646Z 22004KT 09/M01 A2993 RMK A01 T00871011  RH  050%=      5-min Rain = 0
KES1 190647Z 23004KT 09/M01 A2993 RMK A01 T00861012  RH  050%=      5-min Rain = 0
KES1 190648Z 23005KT 09/M01 A2993 RMK A01 T00861012  RH  050%=      5-min Rain = 0
KES1 190649Z 24005KT 09/M01 A2994 RMK A01 T00861011  RH  050%=      5-min Rain = 0
KES1 190650Z 24004KT 09/M01 A2994 RMK A01 T00881010  RH  050%=      5-min Rain = 0
KES1 190651Z 24004KT 09/M01 A2994 RMK A01 T00891010  RH  050%=      5-min Rain = 0
KES1 190652Z 24004KT 09/M01 A2994 RMK A01 T00901009  RH  050%=      5-min Rain = 0
KES1 190653Z 23005KT 09/M01 A2994 RMK A01 T00921009  RH  049%=      5-min Rain = 0
KES1 190654Z 23004KT 09/M01 A2994 RMK A01 T00931009  RH  049%=      5-min Rain = 0
KES1 190655Z 23004KT 09/M01 A2994 RMK A01 T00931010  RH  049%=      5-min Rain = 0
KES1 190656Z 24004KT 09/M01 A2994 RMK A01 T00941009  RH  049%=      5-min Rain = 0
KES1 190657Z 25004KT 09/M01 A2994 RMK A01 T00941009  RH  048%=      5-min Rain = 0
KES1 190658Z 25004KT 10/M01 A2994 RMK A01 T00951009  RH  048%=      5-min Rain = 0
KES1 190659Z 26004KT 10/M01 A2994 RMK A01 T00951009  RH  048%=      5-min Rain = 0
KES1 190700Z 26004KT 10/M01 A2994 RMK A01 T00961009  RH  048%=      5-min Rain = 0
KES1 190701Z 26004KT 10/M01 A2994 RMK A01 T00961009  RH  048%=      5-min Rain = 0
KES1 190702Z 27004KT 10/M01 A2994 RMK A01 T00971009  RH  048%=      5-min Rain = 0
KES1 190703Z 26004KT 10/M01 A2994 RMK A01 T00961010  RH  048%=      5-min Rain = 0
KES1 190704Z 27004KT 10/M01 A2994 RMK A01 T00961009  RH  048%=      5-min Rain = 0
KES1 190705Z 27003KT 10/M01 A2994 RMK A01 T00951010  RH  048%=      5-min Rain = 0
KES1 190706Z 27003KT 09/M01 A2994 RMK A01 T00941010  RH  048%=      5-min Rain = 0
KES1 190707Z 27003KT 09/M01 A2994 RMK A01 T00941010  RH  048%=      5-min Rain = 0
KES1 190708Z 27003KT 09/M01 A2994 RMK A01 T00931010  RH  048%=      5-min Rain = 0
KES1 190709Z 27003KT 09/M01 A2994 RMK A01 T00921011  RH  049%=      5-min Rain = 0
KES1 190710Z 27003KT 09/M01 A2994 RMK A01 T00901011  RH  049%=      5-min Rain = 0
KES1 190711Z 27003KT 09/M01 A2995 RMK A01 T00891011  RH  049%=      5-min Rain = 0
KES1 190712Z 28003KT 09/M01 A2995 RMK A01 T00891010  RH  050%=      5-min Rain = 0
KES1 190713Z 28003KT 09/M01 A2995 RMK A01 T00891010  RH  050%=      5-min Rain = 0
KES1 190714Z 28003KT 09/M01 A2995 RMK A01 T00881010  RH  050%=      5-min Rain = 0
KES1 190715Z 27003KT 09/M01 A2995 RMK A01 T00891009  RH  050%=      5-min Rain = 0
KES1 190716Z 27002KT 09/M01 A2994 RMK A01 T00891009  RH  050%=      5-min Rain = 0
KES1 190717Z 27002KT 09/M01 A2994 RMK A01 T00901009  RH  050%=      5-min Rain = 0
KES1 190718Z 26003KT 09/M01 A2994 RMK A01 T00901008  RH  050%=      5-min Rain = 0
KES1 190719Z 26002KT 09/M01 A2994 RMK A01 T00911007  RH  050%=      5-min Rain = 0
KES1 190720Z 26003KT 09/M01 A2994 RMK A01 T00921007  RH  050%=      5-min Rain = 0
KES1 190721Z 25004KT 09/M01 A2994 RMK A01 T00941006  RH  050%=      5-min Rain = 0
KES1 190722Z 24004KT 09/M01 A2994 RMK A01 T00941007  RH  049%=      5-min Rain = 0
KES1 190723Z 24004KT 09/M01 A2994 RMK A01 T00941007  RH  049%=      5-min Rain = 0
KES1 190724Z 23003KT 09/M01 A2994 RMK A01 T00931007  RH  049%=      5-min Rain = 0
KES1 190725Z 25003KT 09/M01 A2994 RMK A01 T00931008  RH  049%=      5-min Rain = 0
KES1 190726Z 26005KT 09/M01 A2995 RMK A01 T00921008  RH  050%=      5-min Rain = 0
KES1 190727Z 26006KT 09/M01 A2995 RMK A01 T00921008  RH  050%=      5-min Rain = 0
KES1 190728Z 26006KT 09/M01 A2995 RMK A01 T00911008  RH  050%=      5-min Rain = 0
KES1 190729Z 26006KT 09/M01 A2995 RMK A01 T00891009  RH  050%=      5-min Rain = 0
KES1 190730Z 26006KT 09/M01 A2995 RMK A01 T00881009  RH  050%=      5-min Rain = 0
KES1 190731Z 27006KT 09/M01 A2995 RMK A01 T00871010  RH  051%=      5-min Rain = 0
KES1 190732Z 27006KT 09/M01 A2995 RMK A01 T00861010  RH  051%=      5-min Rain = 0
KES1 190733Z 27006KT 09/M01 A2995 RMK A01 T00851010  RH  051%=      5-min Rain = 0
KES1 190734Z 27006KT 08/M01 A2995 RMK A01 T00831011  RH  052%=      5-min Rain = 0
KES1 190735Z 27006KT 08/M01 A2995 RMK A01 T00821011  RH  052%=      5-min Rain = 0
KES1 190736Z 27006KT 08/M01 A2995 RMK A01 T00811011  RH  052%=      5-min Rain = 0
KES1 190737Z 27005KT 08/M01 A2995 RMK A01 T00811010  RH  052%=      5-min Rain = 0
KES1 190738Z 27005KT 08/M01 A2995 RMK A01 T00811010  RH  052%=      5-min Rain = 0
KES1 190739Z 27005KT 08/M01 A2995 RMK A01 T00821010  RH  052%=      5-min Rain = 0
KES1 190740Z 26005KT 08/M01 A2995 RMK A01 T00821010  RH  052%=      5-min Rain = 0
KES1 190741Z 26005KT 08/M01 A2995 RMK A01 T00811011  RH  052%=      5-min Rain = 0
KES1 190742Z 26005KT 08/M01 A2995 RMK A01 T00801011  RH  053%=      5-min Rain = 0
KES1 190743Z 26005KT 08/M01 A2995 RMK A01 T00801011  RH  053%=      5-min Rain = 0
KES1 190744Z 25004KT 08/M01 A2995 RMK A01 T00811010  RH  053%=      5-min Rain = 0
KES1 190745Z 25004KT 08/M01 A2995 RMK A01 T00811010  RH  052%=      5-min Rain = 0
KES1 190746Z 24003KT 08/M01 A2995 RMK A01 T00811011  RH  053%=      5-min Rain = 0
KES1 190747Z 24004KT 08/M01 A2995 RMK A01 T00801011  RH  053%=      5-min Rain = 0
KES1 190748Z 24004KT 08/M01 A2995 RMK A01 T00791011  RH  053%=      5-min Rain = 0
KES1 190749Z 24005KT 08/M01 A2995 RMK A01 T00781011  RH  053%=      5-min Rain = 0
KES1 190750Z 25005KT 08/M01 A2995 RMK A01 T00781010  RH  054%=      5-min Rain = 0
KES1 190751Z 25006KT 08/M01 A2995 RMK A01 T00771010  RH  054%=      5-min Rain = 0
KES1 190752Z 26006KT 08/M01 A2995 RMK A01 T00781010  RH  054%=      5-min Rain = 0
KES1 190753Z 26006KT 08/M01 A2995 RMK A01 T00781010  RH  054%=      5-min Rain = 0
KES1 190754Z 26006KT 08/M01 A2995 RMK A01 T00791010  RH  053%=      5-min Rain = 0
KES1 190755Z 26005KT 08/M01 A2995 RMK A01 T00791010  RH  053%=      5-min Rain = 0
KES1 190756Z 26005KT 08/M01 A2995 RMK A01 T00791010  RH  053%=      5-min Rain = 0
KES1 190757Z 25005KT 08/M01 A2995 RMK A01 T00791010  RH  053%=      5-min Rain = 0
KES1 190758Z 25004KT 08/M01 A2995 RMK A01 T00791010  RH  054%=      5-min Rain = 0
KES1 190759Z 26004KT 08/M01 A2995 RMK A01 T00791010  RH  054%=      5-min Rain = 0
KES1 190800Z 25005KT 08/M01 A2995 RMK A01 T00781010  RH  054%=      5-min Rain = 0
KES1 190801Z 25005KT 08/M01 A2995 RMK A01 T00781010  RH  054%=      5-min Rain = 0
KES1 190802Z 24005KT 08/M01 A2995 RMK A01 T00791009  RH  054%=      5-min Rain = 0
KES1 190803Z 24005KT 08/M01 A2995 RMK A01 T00791010  RH  054%=      5-min Rain = 0
KES1 190804Z 24005KT 08/M01 A2995 RMK A01 T00781009  RH  054%=      5-min Rain = 0
KES1 190805Z 24005KT 08/M01 A2995 RMK A01 T00781009  RH  054%=      5-min Rain = 0
KES1 190806Z 25005KT 08/M01 A2995 RMK A01 T00781009  RH  054%=      5-min Rain = 0
KES1 190807Z 26004KT 08/M01 A2995 RMK A01 T00791009  RH  054%=      5-min Rain = 0
KES1 190808Z 26005KT 08/M01 A2995 RMK A01 T00791009  RH  054%=      5-min Rain = 0
KES1 190809Z 26005KT 08/M01 A2995 RMK A01 T00801008  RH  054%=      5-min Rain = 0
KES1 190810Z 26004KT 08/M01 A2995 RMK A01 T00811008  RH  054%=      5-min Rain = 0
KES1 190811Z 26005KT 08/M01 A2995 RMK A01 T00821007  RH  053%=      5-min Rain = 0
KES1 190812Z 26004KT 08/M01 A2995 RMK A01 T00821008  RH  053%=      5-min Rain = 0
KES1 190813Z 26004KT 08/M01 A2995 RMK A01 T00821008  RH  053%=      5-min Rain = 0
KES1 190814Z 26005KT 08/M01 A2995 RMK A01 T00821008  RH  053%=      5-min Rain = 0
KES1 190815Z 25004KT 08/M01 A2995 RMK A01 T00831008  RH  053%=      5-min Rain = 0
KES1 190816Z 25003KT 08/M01 A2995 RMK A01 T00831008  RH  053%=      5-min Rain = 0
KES1 190817Z 26004KT 08/M01 A2995 RMK A01 T00831008  RH  053%=      5-min Rain = 0
KES1 190818Z 25003KT 08/M01 A2995 RMK A01 T00831008  RH  053%=      5-min Rain = 0
KES1 190819Z 25003KT 08/M01 A2995 RMK A01 T00841008  RH  053%=      5-min Rain = 0
KES1 190820Z 25003KT 08/M01 A2995 RMK A01 T00841008  RH  053%=      5-min Rain = 0
KES1 190821Z 25004KT 08/M01 A2995 RMK A01 T00841008  RH  053%=      5-min Rain = 0
KES1 190822Z 25004KT 08/M01 A2995 RMK A01 T00841007  RH  053%=      5-min Rain = 0
KES1 190823Z 25003KT 08/M01 A2995 RMK A01 T00841007  RH  053%=      5-min Rain = 0
KES1 190824Z 25003KT 08/M01 A2995 RMK A01 T00841008  RH  053%=      5-min Rain = 0
KES1 190825Z 25003KT 08/M01 A2995 RMK A01 T00841007  RH  053%=      5-min Rain = 0
KES1 190826Z 25003KT 09/M01 A2995 RMK A01 T00851007  RH  052%=      5-min Rain = 0
KES1 190827Z 25003KT 09/M01 A2995 RMK A01 T00851007  RH  052%=      5-min Rain = 0
KES1 190828Z 25003KT 09/M01 A2995 RMK A01 T00861007  RH  052%=      5-min Rain = 0
KES1 190829Z 25003KT 09/M01 A2995 RMK A01 T00861007  RH  052%=      5-min Rain = 0
KES1 190830Z 25002KT 09/M01 A2995 RMK A01 T00871007  RH  052%=      5-min Rain = 0
KES1 190831Z 26002KT 09/M01 A2994 RMK A01 T00871007  RH  052%=      5-min Rain = 0
KES1 190832Z 24003KT 09/M01 A2994 RMK A01 T00881007  RH  052%=      5-min Rain = 0
KES1 190833Z 23002KT 09/M01 A2994 RMK A01 T00881007  RH  051%=      5-min Rain = 0
KES1 190834Z 22001KT 09/M01 A2994 RMK A01 T00891007  RH  051%=      5-min Rain = 0
KES1 190835Z 21001KT 09/M01 A2994 RMK A01 T00891006  RH  051%=      5-min Rain = 0
KES1 190836Z 22002KT 09/M01 A2994 RMK A01 T00881007  RH  051%=      5-min Rain = 0
KES1 190837Z 23002KT 09/M01 A2994 RMK A01 T00881006  RH  051%=      5-min Rain = 0
KES1 190838Z 22002KT 09/M01 A2994 RMK A01 T00901006  RH  051%=      5-min Rain = 0
KES1 190839Z 23001KT 09/M01 A2993 RMK A01 T00911006  RH  051%=      5-min Rain = 0
KES1 190840Z 24001KT 09/M01 A2993 RMK A01 T00911006  RH  051%=      5-min Rain = 0
KES1 190841Z 27001KT 09/M01 A2993 RMK A01 T00911006  RH  050%=      5-min Rain = 0
KES1 190842Z 28001KT 09/M01 A2993 RMK A01 T00911006  RH  051%=      5-min Rain = 0
KES1 190843Z 29002KT 09/M01 A2993 RMK A01 T00901006  RH  051%=      5-min Rain = 0
KES1 190844Z 29002KT 09/M01 A2993 RMK A01 T00901006  RH  051%=      5-min Rain = 0
KES1 190845Z 29003KT 09/M01 A2994 RMK A01 T00911005  RH  051%=      5-min Rain = 0
KES1 190846Z 29003KT 09/M01 A2994 RMK A01 T00921005  RH  051%=      5-min Rain = 0
KES1 190847Z 29003KT 09/M01 A2994 RMK A01 T00921005  RH  051%=      5-min Rain = 0
KES1 190848Z 29003KT 09/M01 A2994 RMK A01 T00931005  RH  050%=      5-min Rain = 0
KES1 190849Z 29003KT 09/M01 A2994 RMK A01 T00931005  RH  050%=      5-min Rain = 0
KES1 190850Z 29003KT 09/M01 A2994 RMK A01 T00941005  RH  050%=      5-min Rain = 0
KES1 190851Z 30003KT 09/M01 A2994 RMK A01 T00931006  RH  050%=      5-min Rain = 0
KES1 190852Z 30002KT 09/M01 A2994 RMK A01 T00921006  RH  050%=      5-min Rain = 0
KES1 190853Z 29002KT 09/M01 A2994 RMK A01 T00921006  RH  050%=      5-min Rain = 0
KES1 190854Z 28001KT 09/M01 A2994 RMK A01 T00921006  RH  050%=      5-min Rain = 0
KES1 190855Z 27001KT 09/M01 A2994 RMK A01 T00911006  RH  051%=      5-min Rain = 0
KES1 190856Z 27001KT 09/M01 A2994 RMK A01 T00901006  RH  051%=      5-min Rain = 0
KES1 190857Z 27001KT 09/M01 A2994 RMK A01 T00891006  RH  051%=      5-min Rain = 0
KES1 190858Z 27001KT 09/M01 A2994 RMK A01 T00891006  RH  051%=      5-min Rain = 0
KES1 190859Z 27002KT 09/M01 A2994 RMK A01 T00891006  RH  051%=      5-min Rain = 0
KES1 190900Z 27002KT 09/M01 A2994 RMK A01 T00891006  RH  051%=      5-min Rain = 0
KES1 190901Z 27002KT 09/M01 A2994 RMK A01 T00891006  RH  051%=      5-min Rain = 0
KES1 190902Z 28002KT 09/M01 A2995 RMK A01 T00891006  RH  052%=      5-min Rain = 0
KES1 190903Z 28002KT 09/M01 A2995 RMK A01 T00881006  RH  052%=      5-min Rain = 0
KES1 190904Z 27002KT 09/M01 A2995 RMK A01 T00881006  RH  052%=      5-min Rain = 0
KES1 190905Z 26003KT 09/M01 A2995 RMK A01 T00871007  RH  052%=      5-min Rain = 0
KES1 190906Z 26003KT 09/M01 A2995 RMK A01 T00851008  RH  052%=      5-min Rain = 0
KES1 190907Z 26003KT 08/M01 A2995 RMK A01 T00831008  RH  053%=      5-min Rain = 0
KES1 190908Z 25003KT 08/M01 A2995 RMK A01 T00821008  RH  053%=      5-min Rain = 0
KES1 190909Z 25003KT 08/M01 A2995 RMK A01 T00811008  RH  053%=      5-min Rain = 0
KES1 190910Z 25003KT 08/M01 A2995 RMK A01 T00791009  RH  054%=      5-min Rain = 0
KES1 190911Z 25003KT 08/M01 A2995 RMK A01 T00781009  RH  054%=      5-min Rain = 0
KES1 190912Z 25004KT 08/M01 A2995 RMK A01 T00761009  RH  055%=      5-min Rain = 0
KES1 190913Z 25004KT 08/M01 A2995 RMK A01 T00751009  RH  055%=      5-min Rain = 0
KES1 190914Z 26004KT 07/M01 A2995 RMK A01 T00741009  RH  056%=      5-min Rain = 0
KES1 190915Z 27004KT 07/M01 A2995 RMK A01 T00731009  RH  056%=      5-min Rain = 0
KES1 190916Z 27004KT 07/M01 A2995 RMK A01 T00731008  RH  056%=      5-min Rain = 0
KES1 190917Z 26004KT 07/M01 A2995 RMK A01 T00741007  RH  056%=      5-min Rain = 0
KES1 190918Z 26004KT 08/M01 A2995 RMK A01 T00751007  RH  056%=      5-min Rain = 0
KES1 190919Z 26005KT 08/M01 A2995 RMK A01 T00751007  RH  056%=      5-min Rain = 0
KES1 190920Z 25005KT 08/M01 A2995 RMK A01 T00751007  RH  056%=      5-min Rain = 0
KES1 190921Z 25005KT 08/M01 A2995 RMK A01 T00761006  RH  056%=      5-min Rain = 0
KES1 190922Z 26005KT 08/M01 A2995 RMK A01 T00761006  RH  056%=      5-min Rain = 0
KES1 190923Z 26005KT 08/M01 A2995 RMK A01 T00771005  RH  056%=      5-min Rain = 0
KES1 190924Z 27005KT 08/M01 A2995 RMK A01 T00781005  RH  056%=      5-min Rain = 0
KES1 190925Z 27004KT 08/M00 A2995 RMK A01 T00801004  RH  055%=      5-min Rain = 0
KES1 190926Z 28005KT 08/M00 A2995 RMK A01 T00811004  RH  055%=      5-min Rain = 0
KES1 190927Z 28005KT 08/M00 A2995 RMK A01 T00831003  RH  054%=      5-min Rain = 0
KES1 190928Z 28004KT 08/M00 A2995 RMK A01 T00841003  RH  054%=      5-min Rain = 0
KES1 190929Z 27004KT 08/M00 A2995 RMK A01 T00841003  RH  054%=      5-min Rain = 0
KES1 190930Z 27004KT 08/M00 A2995 RMK A01 T00831004  RH  054%=      5-min Rain = 0
KES1 190931Z 27004KT 08/M00 A2995 RMK A01 T00831004  RH  054%=      5-min Rain = 0
KES1 190932Z 27004KT 08/M00 A2995 RMK A01 T00821004  RH  055%=      5-min Rain = 0
KES1 190933Z 26004KT 08/M00 A2995 RMK A01 T00811004  RH  055%=      5-min Rain = 0
KES1 190934Z 26004KT 08/M00 A2995 RMK A01 T00801004  RH  055%=      5-min Rain = 0
KES1 190935Z 26003KT 08/M00 A2995 RMK A01 T00801004  RH  055%=      5-min Rain = 0
KES1 190936Z 26003KT 08/M00 A2995 RMK A01 T00801004  RH  055%=      5-min Rain = 0
KES1 190937Z 27003KT 08/M00 A2995 RMK A01 T00801003  RH  055%=      5-min Rain = 0
KES1 190938Z 28002KT 08/M00 A2995 RMK A01 T00801003  RH  056%=      5-min Rain = 0
KES1 190939Z 28002KT 08/M00 A2995 RMK A01 T00811003  RH  055%=      5-min Rain = 0
KES1 190940Z 29002KT 08/M00 A2995 RMK A01 T00801004  RH  055%=      5-min Rain = 0
KES1 190941Z 29002KT 08/M00 A2995 RMK A01 T00801004  RH  055%=      5-min Rain = 0
KES1 190942Z 29002KT 08/M00 A2995 RMK A01 T00791004  RH  056%=      5-min Rain = 0
KES1 190943Z 29002KT 08/M00 A2995 RMK A01 T00791003  RH  056%=      5-min Rain = 0
KES1 190944Z 29002KT 08/M00 A2995 RMK A01 T00791003  RH  056%=      5-min Rain = 0
KES1 190945Z 29001KT 08/M00 A2995 RMK A01 T00791002  RH  056%=      5-min Rain = 0
KES1 190946Z 29001KT 08/M00 A2995 RMK A01 T00801002  RH  056%=      5-min Rain = 0
KES1 190947Z 30001KT 08/M00 A2995 RMK A01 T00801002  RH  056%=      5-min Rain = 0
KES1 190948Z 30001KT 08/M00 A2995 RMK A01 T00811002  RH  056%=      5-min Rain = 0
KES1 190949Z 30002KT 08/M00 A2995 RMK A01 T00811002  RH  056%=      5-min Rain = 0
KES1 190950Z 30002KT 08/M00 A2995 RMK A01 T00811002  RH  056%=      5-min Rain = 0
KES1 190951Z 29002KT 08/M00 A2995 RMK A01 T00821001  RH  056%=      5-min Rain = 0
KES1 190952Z 26001KT 08/M00 A2995 RMK A01 T00831001  RH  056%=      5-min Rain = 0
KES1 190953Z 25002KT 08/M00 A2995 RMK A01 T00831001  RH  055%=      5-min Rain = 0
KES1 190954Z 24003KT 08/M00 A2995 RMK A01 T00821001  RH  056%=      5-min Rain = 0
KES1 190955Z 24003KT 08/M00 A2995 RMK A01 T00821001  RH  056%=      5-min Rain = 0
KES1 190956Z 24004KT 08/M00 A2995 RMK A01 T00811001  RH  056%=      5-min Rain = 0
KES1 190957Z 25004KT 08/M00 A2995 RMK A01 T00801001  RH  056%=      5-min Rain = 0
KES1 190958Z 26005KT 08/M00 A2995 RMK A01 T00791001  RH  057%=      5-min Rain = 0
KES1 190959Z 25004KT 08/M00 A2995 RMK A01 T00791001  RH  057%=      5-min Rain = 0
KES1 191000Z 25004KT 08/M00 A2995 RMK A01 T00791001  RH  057%=      5-min Rain = 0
KES1 191001Z 26005KT 08/M00 A2995 RMK A01 T00781002  RH  057%=      5-min Rain = 0
KES1 191002Z 26005KT 08/M00 A2995 RMK A01 T00771003  RH  057%=      5-min Rain = 0
KES1 191003Z 26005KT 08/M00 A2995 RMK A01 T00751003  RH  058%=      5-min Rain = 0
KES1 191004Z 26006KT 08/M00 A2995 RMK A01 T00751003  RH  058%=      5-min Rain = 0
KES1 191005Z 26006KT 07/M00 A2995 RMK A01 T00741003  RH  058%=      5-min Rain = 0
KES1 191006Z 26006KT 07/M00 A2995 RMK A01 T00741003  RH  058%=      5-min Rain = 0
KES1 191007Z 26006KT 07/M00 A2995 RMK A01 T00741002  RH  058%=      5-min Rain = 0
KES1 191008Z 27006KT 08/M00 A2995 RMK A01 T00751002  RH  058%=      5-min Rain = 0
KES1 191009Z 26006KT 08/M00 A2995 RMK A01 T00761002  RH  058%=      5-min Rain = 0
KES1 191010Z 26006KT 08/M00 A2995 RMK A01 T00761002  RH  058%=      5-min Rain = 0
KES1 191011Z 26005KT 08/M00 A2995 RMK A01 T00761002  RH  058%=      5-min Rain = 0
KES1 191012Z 26005KT 08/M00 A2995 RMK A01 T00761002  RH  058%=      5-min Rain = 0
KES1 191013Z 25004KT 08/M00 A2996 RMK A01 T00761002  RH  058%=      5-min Rain = 0
KES1 191014Z 24003KT 08/M00 A2996 RMK A01 T00761002  RH  058%=      5-min Rain = 0
KES1 191015Z 24004KT 08/M00 A2996 RMK A01 T00761002  RH  058%=      5-min Rain = 0
KES1 191016Z 24003KT 08/M00 A2996 RMK A01 T00751002  RH  058%=      5-min Rain = 0
KES1 191017Z 24004KT 07/M00 A2996 RMK A01 T00741003  RH  058%=      5-min Rain = 0
KES1 191018Z 24004KT 07/M00 A2995 RMK A01 T00731003  RH  058%=      5-min Rain = 0
KES1 191019Z 24004KT 07/M00 A2995 RMK A01 T00721003  RH  059%=      5-min Rain = 0
KES1 191020Z 25005KT 07/M00 A2995 RMK A01 T00711003  RH  059%=      5-min Rain = 0
KES1 191021Z 25005KT 07/M00 A2995 RMK A01 T00711002  RH  060%=      5-min Rain = 0
KES1 191022Z 25005KT 07/M00 A2995 RMK A01 T00711002  RH  060%=      5-min Rain = 0
KES1 191023Z 25005KT 07/M00 A2995 RMK A01 T00711002  RH  060%=      5-min Rain = 0
KES1 191024Z 25005KT 07/M00 A2995 RMK A01 T00721002  RH  059%=      5-min Rain = 0
KES1 191025Z 25005KT 07/M00 A2995 RMK A01 T00721002  RH  059%=      5-min Rain = 0
KES1 191026Z 25005KT 07/M00 A2995 RMK A01 T00721002  RH  059%=      5-min Rain = 0
KES1 191027Z 25005KT 07/M00 A2995 RMK A01 T00721002  RH  060%=      5-min Rain = 0
KES1 191028Z 25005KT 07/M00 A2995 RMK A01 T00721002  RH  060%=      5-min Rain = 0
KES1 191029Z 26005KT 07/M00 A2995 RMK A01 T00721001  RH  060%=      5-min Rain = 0
KES1 191030Z 25004KT 07/M00 A2995 RMK A01 T00721001  RH  060%=      5-min Rain = 0
KES1 191031Z 26005KT 07/M00 A2995 RMK A01 T00721001  RH  060%=      5-min Rain = 0
KES1 191032Z 26004KT 07/M00 A2995 RMK A01 T00721001  RH  060%=      5-min Rain = 0
KES1 191033Z 26004KT 07/M00 A2995 RMK A01 T00721001  RH  060%=      5-min Rain = 0
KES1 191034Z 26004KT 07/M00 A2995 RMK A01 T00711002  RH  060%=      5-min Rain = 0
KES1 191035Z 26004KT 07/M00 A2995 RMK A01 T00711002  RH  060%=      5-min Rain = 0
KES1 191036Z 26005KT 07/M00 A2995 RMK A01 T00711002  RH  060%=      5-min Rain = 0
KES1 191037Z 26004KT 07/M00 A2995 RMK A01 T00701002  RH  060%=      5-min Rain = 0
KES1 191038Z 27004KT 07/M00 A2995 RMK A01 T00701002  RH  060%=      5-min Rain = 0
KES1 191039Z 26004KT 07/M00 A2995 RMK A01 T00691002  RH  061%=      5-min Rain = 0
KES1 191040Z 27004KT 07/M00 A2996 RMK A01 T00691002  RH  061%=      5-min Rain = 0
KES1 191041Z 27004KT 07/M00 A2996 RMK A01 T00701001  RH  060%=      5-min Rain = 0
KES1 191042Z 28004KT 07/M00 A2996 RMK A01 T00711001  RH  060%=      5-min Rain = 0
KES1 191043Z 27004KT 07/M00 A2996 RMK A01 T00721001  RH  060%=      5-min Rain = 0
KES1 191044Z 27004KT 07/00 A2996 RMK A01 T007300-0  RH  060%=      5-min Rain = 0
KES1 191045Z 27004KT 07/00 A2996 RMK A01 T007400-0  RH  059%=      5-min Rain = 0
KES1 191046Z 26004KT 07/00 A2996 RMK A01 T007400-0  RH  059%=      5-min Rain = 0
KES1 191047Z 27005KT 08/00 A2996 RMK A01 T007500-0  RH  059%=      5-min Rain = 0
KES1 191048Z 27004KT 08/00 A2996 RMK A01 T007500-0  RH  059%=      5-min Rain = 0
KES1 191049Z 27004KT 07/M00 A2996 RMK A01 T00741001  RH  059%=      5-min Rain = 0
KES1 191050Z 27004KT 08/00 A2996 RMK A01 T007500-0  RH  059%=      5-min Rain = 0
KES1 191051Z 27004KT 07/00 A2996 RMK A01 T007400-0  RH  059%=      5-min Rain = 0
KES1 191052Z 27003KT 07/M00 A2996 RMK A01 T00741001  RH  059%=      5-min Rain = 0
KES1 191053Z 27003KT 07/M00 A2996 RMK A01 T00741001  RH  059%=      5-min Rain = 0
KES1 191054Z 27003KT 07/M00 A2995 RMK A01 T00741001  RH  059%=      5-min Rain = 0
KES1 191055Z 27003KT 07/M00 A2995 RMK A01 T00741001  RH  059%=      5-min Rain = 0
KES1 191056Z 27003KT 07/M00 A2995 RMK A01 T00741001  RH  059%=      5-min Rain = 0
KES1 191057Z 27003KT 07/M00 A2995 RMK A01 T00741001  RH  059%=      5-min Rain = 0
KES1 191058Z 27003KT 07/00 A2995 RMK A01 T007400-0  RH  059%=      5-min Rain = 0
KES1 191059Z 27003KT 07/00 A2995 RMK A01 T007400-0  RH  059%=      5-min Rain = 0
KES1 191100Z 27003KT 07/M00 A2995 RMK A01 T00741001  RH  059%=      5-min Rain = 0
KES1 191101Z 27003KT 07/M00 A2995 RMK A01 T00741001  RH  059%=      5-min Rain = 0
KES1 191102Z 27003KT 07/M00 A2995 RMK A01 T00741001  RH  059%=      5-min Rain = 0
KES1 191103Z 27003KT 07/M00 A2995 RMK A01 T00741001  RH  059%=      5-min Rain = 0
KES1 191104Z 27003KT 07/M00 A2995 RMK A01 T00741001  RH  059%=      5-min Rain = 0
KES1 191105Z 26003KT 07/M00 A2995 RMK A01 T00741001  RH  059%=      5-min Rain = 0
KES1 191106Z 26004KT 08/M00 A2995 RMK A01 T00751001  RH  059%=      5-min Rain = 0
KES1 191107Z 25003KT 07/M00 A2995 RMK A01 T00741002  RH  059%=      5-min Rain = 0
KES1 191108Z 25004KT 07/M00 A2995 RMK A01 T00741002  RH  058%=      5-min Rain = 0
KES1 191109Z 25004KT 07/M00 A2995 RMK A01 T00741002  RH  058%=      5-min Rain = 0
KES1 191110Z 25004KT 07/M00 A2995 RMK A01 T00741002  RH  058%=      5-min Rain = 0
KES1 191111Z 25004KT 07/M00 A2995 RMK A01 T00741002  RH  058%=      5-min Rain = 0
KES1 191112Z 25004KT 08/M00 A2995 RMK A01 T00751002  RH  058%=      5-min Rain = 0
KES1 191113Z 25005KT 08/M00 A2995 RMK A01 T00751002  RH  058%=      5-min Rain = 0
KES1 191114Z 26004KT 08/M00 A2995 RMK A01 T00761001  RH  058%=      5-min Rain = 0
KES1 191115Z 25005KT 08/M00 A2995 RMK A01 T00761001  RH  058%=      5-min Rain = 0
KES1 191116Z 25004KT 08/M00 A2996 RMK A01 T00771001  RH  058%=      5-min Rain = 0
KES1 191117Z 25004KT 08/M00 A2996 RMK A01 T00771002  RH  058%=      5-min Rain = 0
KES1 191118Z 25004KT 08/M00 A2996 RMK A01 T00771002  RH  058%=      5-min Rain = 0
KES1 191119Z 25005KT 08/M00 A2996 RMK A01 T00771001  RH  058%=      5-min Rain = 0
KES1 191120Z 25004KT 08/M00 A2996 RMK A01 T00771001  RH  058%=      5-min Rain = 0
KES1 191121Z 25003KT 08/M00 A2995 RMK A01 T00771001  RH  058%=      5-min Rain = 0
KES1 191122Z 25003KT 08/M00 A2995 RMK A01 T00771001  RH  058%=      5-min Rain = 0
KES1 191123Z 25003KT 08/00 A2995 RMK A01 T007800-0  RH  058%=      5-min Rain = 0
KES1 191124Z 25003KT 08/00 A2995 RMK A01 T00790000  RH  058%=      5-min Rain = 0
KES1 191125Z 26003KT 08/00 A2995 RMK A01 T00790000  RH  057%=      5-min Rain = 0
KES1 191126Z 26004KT 08/00 A2995 RMK A01 T007900-0  RH  057%=      5-min Rain = 0
KES1 191127Z 26004KT 08/M00 A2995 RMK A01 T00781001  RH  057%=      5-min Rain = 0
KES1 191128Z 26004KT 08/M00 A2995 RMK A01 T00781001  RH  057%=      5-min Rain = 0
KES1 191129Z 26004KT 08/M00 A2995 RMK A01 T00781001  RH  057%=      5-min Rain = 0
KES1 191130Z 26004KT 08/M00 A2995 RMK A01 T00771001  RH  058%=      5-min Rain = 0
KES1 191131Z 25004KT 08/M00 A2995 RMK A01 T00761002  RH  058%=      5-min Rain = 0
KES1 191132Z 25004KT 08/M00 A2995 RMK A01 T00761002  RH  058%=      5-min Rain = 0
KES1 191133Z 25004KT 08/M00 A2995 RMK A01 T00751002  RH  058%=      5-min Rain = 0
KES1 191134Z 25003KT 08/M00 A2995 RMK A01 T00751002  RH  058%=      5-min Rain = 0
KES1 191135Z 25003KT 08/M00 A2995 RMK A01 T00751002  RH  058%=      5-min Rain = 0
KES1 191136Z 25002KT 08/M00 A2995 RMK A01 T00751003  RH  058%=      5-min Rain = 0
KES1 191137Z 24002KT 07/M00 A2995 RMK A01 T00741003  RH  058%=      5-min Rain = 0
KES1 191138Z 25002KT 07/M00 A2995 RMK A01 T00741003  RH  058%=      5-min Rain = 0
KES1 191139Z 25002KT 07/M00 A2995 RMK A01 T00731003  RH  058%=      5-min Rain = 0
KES1 191140Z 26002KT 07/M00 A2995 RMK A01 T00731003  RH  059%=      5-min Rain = 0
KES1 191141Z 25002KT 07/M00 A2995 RMK A01 T00731002  RH  059%=      5-min Rain = 0
KES1 191142Z 25003KT 07/M00 A2995 RMK A01 T00731002  RH  059%=      5-min Rain = 0
KES1 191143Z 25003KT 07/M00 A2995 RMK A01 T00731002  RH  059%=      5-min Rain = 0
KES1 191144Z 26003KT 07/M00 A2995 RMK A01 T00741002  RH  058%=      5-min Rain = 0
KES1 191145Z 26003KT 07/M00 A2995 RMK A01 T00741002  RH  058%=      5-min Rain = 0
KES1 191146Z 26003KT 07/M00 A2995 RMK A01 T00741002  RH  059%=      5-min Rain = 0
KES1 191147Z 26003KT 07/M00 A2995 RMK A01 T00731002  RH  059%=      5-min Rain = 0
KES1 191148Z 25003KT 07/M00 A2995 RMK A01 T00741002  RH  059%=      5-min Rain = 0
KES1 191149Z 25003KT 07/M00 A2995 RMK A01 T00731002  RH  059%=      5-min Rain = 0
KES1 191150Z 25003KT 07/M00 A2995 RMK A01 T00731002  RH  059%=      5-min Rain = 0
KES1 191151Z 26003KT 07/M00 A2995 RMK A01 T00731002  RH  059%=      5-min Rain = 0
KES1 191152Z 26003KT 07/M00 A2994 RMK A01 T00741001  RH  059%=      5-min Rain = 0
KES1 191153Z 26003KT 07/M00 A2994 RMK A01 T00741002  RH  059%=      5-min Rain = 0
KES1 191154Z 26003KT 07/M00 A2994 RMK A01 T00741001  RH  059%=      5-min Rain = 0
KES1 191155Z 26003KT 08/M00 A2994 RMK A01 T00751001  RH  059%=      5-min Rain = 0
KES1 191156Z 26003KT 08/M00 A2994 RMK A01 T00751001  RH  058%=      5-min Rain = 0
KES1 191157Z 26003KT 08/M00 A2994 RMK A01 T00761001  RH  058%=      5-min Rain = 0
KES1 191158Z 26003KT 08/M00 A2995 RMK A01 T00761001  RH  058%=      5-min Rain = 0
KES1 191159Z 25003KT 08/M00 A2995 RMK A01 T00761001  RH  058%=      5-min Rain = 0
KES1 191200Z 25002KT 08/M00 A2995 RMK A01 T00761001  RH  058%=      5-min Rain = 0
KES1 191201Z 25002KT 08/M00 A2995 RMK A01 T00761001  RH  058%=      5-min Rain = 0
KES1 191202Z 24002KT 08/M00 A2995 RMK A01 T00761001  RH  058%=      5-min Rain = 0
KES1 191203Z 24002KT 08/M00 A2995 RMK A01 T00751001  RH  058%=      5-min Rain = 0
KES1 191204Z 24002KT 08/M00 A2995 RMK A01 T00751001  RH  058%=      5-min Rain = 0
KES1 191205Z 24002KT 08/M00 A2995 RMK A01 T00751001  RH  059%=      5-min Rain = 0
KES1 191206Z 24003KT 08/M00 A2995 RMK A01 T00751001  RH  059%=      5-min Rain = 0
KES1 191207Z 25003KT 08/M00 A2995 RMK A01 T00751001  RH  059%=      5-min Rain = 0
KES1 191208Z 25002KT 08/M00 A2995 RMK A01 T00751001  RH  059%=      5-min Rain = 0
KES1 191209Z 26002KT 08/M00 A2995 RMK A01 T00751001  RH  059%=      5-min Rain = 0
KES1 191210Z 26003KT 08/M00 A2995 RMK A01 T00751001  RH  059%=      5-min Rain = 0
KES1 191211Z 26003KT 08/M00 A2995 RMK A01 T00751001  RH  059%=      5-min Rain = 0
KES1 191212Z 26003KT 08/M00 A2995 RMK A01 T00751001  RH  059%=      5-min Rain = 0
KES1 191213Z 27003KT 08/M00 A2995 RMK A01 T00751001  RH  059%=      5-min Rain = 0
KES1 191214Z 27002KT 08/M00 A2995 RMK A01 T00751001  RH  059%=      5-min Rain = 0
KES1 191215Z 27003KT 08/00 A2995 RMK A01 T007500-0  RH  059%=      5-min Rain = 0
KES1 191216Z 27002KT 08/00 A2995 RMK A01 T007500-0  RH  059%=      5-min Rain = 0
KES1 191217Z 27002KT 08/M00 A2995 RMK A01 T00751001  RH  059%=      5-min Rain = 0
KES1 191218Z 27002KT 08/00 A2995 RMK A01 T007500-0  RH  059%=      5-min Rain = 0
KES1 191219Z 26001KT 08/00 A2995 RMK A01 T007500-0  RH  059%=      5-min Rain = 0
KES1 191220Z 27001KT 08/M00 A2995 RMK A01 T00751001  RH  059%=      5-min Rain = 0
KES1 191221Z 27001KT 07/M00 A2995 RMK A01 T00741001  RH  059%=      5-min Rain = 0
KES1 191222Z 28001KT 07/M00 A2995 RMK A01 T00731001  RH  059%=      5-min Rain = 0
KES1 191223Z 28001KT 07/M00 A2995 RMK A01 T00721003  RH  059%=      5-min Rain = 0
KES1 191224Z 29000KT 07/M00 A2995 RMK A01 T00691004  RH  059%=      5-min Rain = 0
KES1 191225Z 00000KT 07/M01 A2995 RMK A01 T00671005  RH  060%=      5-min Rain = 0
KES1 191226Z 00000KT 07/M01 A2995 RMK A01 T00651005  RH  061%=      5-min Rain = 0
KES1 191227Z 00000KT 06/M01 A2995 RMK A01 T00641005  RH  062%=      5-min Rain = 0
KES1 191228Z 00000KT 06/M01 A2995 RMK A01 T00621005  RH  062%=      5-min Rain = 0
KES1 191229Z 00000KT 06/M01 A2995 RMK A01 T00611005  RH  063%=      5-min Rain = 0
KES1 191230Z 00000KT 06/M00 A2995 RMK A01 T00601004  RH  063%=      5-min Rain = 0
KES1 191231Z 00000KT 06/M00 A2994 RMK A01 T00591004  RH  064%=      5-min Rain = 0
KES1 191232Z 13000KT 06/M00 A2995 RMK A01 T00591004  RH  064%=      5-min Rain = 0
KES1 191233Z 15001KT 06/M00 A2995 RMK A01 T00581004  RH  065%=      5-min Rain = 0
KES1 191234Z 16001KT 06/M00 A2995 RMK A01 T00581004  RH  065%=      5-min Rain = 0
KES1 191235Z 17001KT 06/M00 A2994 RMK A01 T00581004  RH  064%=      5-min Rain = 0
KES1 191236Z 17001KT 06/M00 A2994 RMK A01 T00571004  RH  065%=      5-min Rain = 0
KES1 191237Z 16001KT 06/M00 A2994 RMK A01 T00561004  RH  065%=      5-min Rain = 0
KES1 191238Z 16001KT 06/M00 A2994 RMK A01 T00561004  RH  065%=      5-min Rain = 0
KES1 191239Z 16001KT 06/M01 A2994 RMK A01 T00561005  RH  065%=      5-min Rain = 0
KES1 191240Z 16001KT 06/M00 A2994 RMK A01 T00551004  RH  066%=      5-min Rain = 0
KES1 191241Z 16001KT 06/M00 A2994 RMK A01 T00551004  RH  066%=      5-min Rain = 0
KES1 191242Z 16001KT 06/M00 A2994 RMK A01 T00551004  RH  066%=      5-min Rain = 0
KES1 191243Z 16001KT 06/M00 A2994 RMK A01 T00551004  RH  066%=      5-min Rain = 0
KES1 191244Z 15000KT 06/M00 A2994 RMK A01 T00551003  RH  066%=      5-min Rain = 0
KES1 191245Z 14000KT 06/M00 A2994 RMK A01 T00561003  RH  066%=      5-min Rain = 0
KES1 191246Z 14000KT 06/M00 A2994 RMK A01 T00571003  RH  066%=      5-min Rain = 0
KES1 191247Z 14000KT 06/M00 A2994 RMK A01 T00581002  RH  066%=      5-min Rain = 0
KES1 191248Z 14001KT 06/M00 A2994 RMK A01 T00581002  RH  065%=      5-min Rain = 0
KES1 191249Z 14001KT 06/M00 A2994 RMK A01 T00591002  RH  065%=      5-min Rain = 0
KES1 191250Z 13001KT 06/M00 A2994 RMK A01 T00591002  RH  065%=      5-min Rain = 0
KES1 191251Z 13001KT 06/M00 A2994 RMK A01 T00591002  RH  065%=      5-min Rain = 0
KES1 191252Z 13001KT 06/M00 A2994 RMK A01 T00591003  RH  065%=      5-min Rain = 0
KES1 191253Z 13001KT 06/M00 A2994 RMK A01 T00591002  RH  065%=      5-min Rain = 0
KES1 191254Z 13001KT 06/M00 A2994 RMK A01 T00591002  RH  065%=      5-min Rain = 0
KES1 191255Z 12001KT 06/M00 A2994 RMK A01 T00601001  RH  065%=      5-min Rain = 0
KES1 191256Z 12000KT 06/M00 A2994 RMK A01 T00621001  RH  064%=      5-min Rain = 0
KES1 191257Z 00000KT 06/00 A2994 RMK A01 T006300-0  RH  064%=      5-min Rain = 0
KES1 191258Z 00000KT 06/00 A2994 RMK A01 T00640000  RH  064%=      5-min Rain = 0
KES1 191259Z 00000KT 07/00 A2994 RMK A01 T00650000  RH  063%=      5-min Rain = 0
KES1 191300Z 00000KT 07/00 A2994 RMK A01 T00660000  RH  063%=      5-min Rain = 0
KES1 191301Z 00000KT 07/00 A2994 RMK A01 T00670000  RH  062%=      5-min Rain = 0
KES1 191302Z 00000KT 07/00 A2994 RMK A01 T00670000  RH  062%=      5-min Rain = 0
KES1 191303Z 00000KT 07/M00 A2994 RMK A01 T00671001  RH  062%=      5-min Rain = 0
KES1 191304Z 00000KT 06/M00 A2994 RMK A01 T00641002  RH  062%=      5-min Rain = 0
KES1 191305Z 00000KT 06/M01 A2994 RMK A01 T00621005  RH  063%=      5-min Rain = 0
KES1 191306Z 00000KT 06/M01 A2994 RMK A01 T00581007  RH  063%=      5-min Rain = 0
KES1 191307Z 00000KT 06/M01 A2994 RMK A01 T00551007  RH  064%=      5-min Rain = 0
KES1 191308Z 00000KT 05/M01 A2994 RMK A01 T00521007  RH  066%=      5-min Rain = 0
KES1 191309Z 00000KT 05/M01 A2994 RMK A01 T00491008  RH  066%=      5-min Rain = 0
KES1 191310Z 00000KT 05/M01 A2994 RMK A01 T00461008  RH  068%=      5-min Rain = 0
KES1 191311Z 00000KT 05/M01 A2994 RMK A01 T00451007  RH  069%=      5-min Rain = 0
KES1 191312Z 00000KT 05/M01 A2994 RMK A01 T00451007  RH  069%=      5-min Rain = 0
KES1 191313Z 00000KT 05/M01 A2993 RMK A01 T00451006  RH  070%=      5-min Rain = 0
KES1 191314Z 00000KT 05/M01 A2993 RMK A01 T00451006  RH  070%=      5-min Rain = 0
KES1 191315Z 00000KT 05/M01 A2993 RMK A01 T00451005  RH  070%=      5-min Rain = 0
KES1 191316Z 00000KT 05/M01 A2993 RMK A01 T00451005  RH  070%=      5-min Rain = 0
KES1 191317Z 00000KT 05/M01 A2993 RMK A01 T00461005  RH  070%=      5-min Rain = 0
KES1 191318Z 00000KT 05/M01 A2994 RMK A01 T00461005  RH  069%=      5-min Rain = 0
KES1 191319Z 00000KT 05/M01 A2994 RMK A01 T00461007  RH  069%=      5-min Rain = 0
KES1 191320Z 23000KT 04/M01 A2994 RMK A01 T00441008  RH  069%=      5-min Rain = 0
KES1 191321Z 24002KT 04/M01 A2994 RMK A01 T00431009  RH  069%=      5-min Rain = 0
KES1 191322Z 24002KT 04/M01 A2994 RMK A01 T00401010  RH  070%=      5-min Rain = 0
KES1 191323Z 23001KT 04/M01 A2993 RMK A01 T00401009  RH  071%=      5-min Rain = 0
KES1 191324Z 10000KT 04/M01 A2993 RMK A01 T00391008  RH  071%=      5-min Rain = 0
KES1 191325Z 11001KT 04/M01 A2993 RMK A01 T00391008  RH  071%=      5-min Rain = 0
KES1 191326Z 12001KT 04/M01 A2993 RMK A01 T00401008  RH  071%=      5-min Rain = 0
KES1 191327Z 12001KT 04/M01 A2993 RMK A01 T00391009  RH  071%=      5-min Rain = 0
KES1 191328Z 11002KT 04/M01 A2993 RMK A01 T00381011  RH  071%=      5-min Rain = 0
KES1 191329Z 11002KT 04/M01 A2993 RMK A01 T00371010  RH  072%=      5-min Rain = 0
KES1 191330Z 11002KT 04/M01 A2993 RMK A01 T00361010  RH  072%=      5-min Rain = 0
KES1 191331Z 11001KT 04/M01 A2993 RMK A01 T00361008  RH  073%=      5-min Rain = 0
KES1 191332Z 09001KT 04/M01 A2993 RMK A01 T00371008  RH  072%=      5-min Rain = 0
KES1 191333Z 08002KT 04/M01 A2993 RMK A01 T00391006  RH  072%=      5-min Rain = 0
KES1 191334Z 07001KT 04/00 A2993 RMK A01 T00440001  RH  074%=      5-min Rain = 0
KES1 191335Z 06001KT 05/01 A2993 RMK A01 T00520005  RH  072%=      5-min Rain = 0
KES1 191336Z 06001KT 06/00 A2993 RMK A01 T00550001  RH  068%=      5-min Rain = 0
KES1 191337Z 06001KT 05/M00 A2993 RMK A01 T00541004  RH  066%=      5-min Rain = 0
KES1 191338Z 07001KT 05/M01 A2993 RMK A01 T00521005  RH  067%=      5-min Rain = 0
KES1 191339Z 08002KT 05/M00 A2993 RMK A01 T00521002  RH  068%=      5-min Rain = 0
KES1 191340Z 08002KT 05/00 A2993 RMK A01 T005400-0  RH  068%=      5-min Rain = 0
KES1 191341Z 08002KT 06/00 A2993 RMK A01 T00570000  RH  067%=      5-min Rain = 0
KES1 191342Z 08002KT 06/M00 A2993 RMK A01 T00571002  RH  066%=      5-min Rain = 0
KES1 191343Z 08002KT 06/M00 A2993 RMK A01 T00561004  RH  066%=      5-min Rain = 0
KES1 191344Z 08002KT 06/M00 A2993 RMK A01 T00551004  RH  066%=      5-min Rain = 0
KES1 191345Z 08003KT 05/M00 A2993 RMK A01 T00541004  RH  066%=      5-min Rain = 0
KES1 191346Z 08003KT 06/M00 A2993 RMK A01 T00551002  RH  067%=      5-min Rain = 0
KES1 191347Z 08003KT 06/M00 A2993 RMK A01 T00571001  RH  066%=      5-min Rain = 0
KES1 191348Z 08003KT 06/00 A2993 RMK A01 T005900-0  RH  066%=      5-min Rain = 0
KES1 191349Z 09003KT 06/00 A2993 RMK A01 T00610001  RH  066%=      5-min Rain = 0
KES1 191350Z 09003KT 06/00 A2993 RMK A01 T00630003  RH  065%=      5-min Rain = 0
KES1 191351Z 09003KT 07/00 A2993 RMK A01 T00660003  RH  064%=      5-min Rain = 0
KES1 191352Z 09003KT 07/00 A2993 RMK A01 T00690004  RH  063%=      5-min Rain = 0
KES1 191353Z 10003KT 07/01 A2993 RMK A01 T00710005  RH  063%=      5-min Rain = 0
KES1 191354Z 10003KT 07/01 A2993 RMK A01 T00730006  RH  062%=      5-min Rain = 0
KES1 191355Z 10003KT 07/01 A2992 RMK A01 T00740005  RH  062%=      5-min Rain = 0
KES1 191356Z 10004KT 07/00 A2992 RMK A01 T00740004  RH  061%=      5-min Rain = 0
KES1 191357Z 10005KT 07/00 A2992 RMK A01 T00740003  RH  061%=      5-min Rain = 0
KES1 191358Z 10005KT 07/00 A2992 RMK A01 T00730003  RH  061%=      5-min Rain = 0
KES1 191359Z 09005KT 07/00 A2992 RMK A01 T00730004  RH  062%=      5-min Rain = 0
KES1 191400Z 09005KT 07/01 A2992 RMK A01 T00740005  RH  062%=      5-min Rain = 0
KES1 191401Z 09005KT 07/01 A2992 RMK A01 T00740006  RH  062%=      5-min Rain = 0
KES1 191402Z 08004KT 08/01 A2992 RMK A01 T00760006  RH  061%=      5-min Rain = 0
KES1 191403Z 05002KT 08/00 A2992 RMK A01 T007500-0  RH  059%=      5-min Rain = 0
KES1 191404Z 32002KT 07/M00 A2993 RMK A01 T00711004  RH  059%=      5-min Rain = 0
KES1 191405Z 31003KT 07/M01 A2993 RMK A01 T00661008  RH  059%=      5-min Rain = 0
KES1 191406Z 31004KT 06/M01 A2993 RMK A01 T00591014  RH  059%=      5-min Rain = 0
KES1 191407Z 30004KT 05/M02 A2993 RMK A01 T00521018  RH  061%=      5-min Rain = 0
KES1 191408Z 30005KT 04/M02 A2993 RMK A01 T00441021  RH  062%=      5-min Rain = 0
KES1 191409Z 30005KT 04/M02 A2993 RMK A01 T00391022  RH  064%=      5-min Rain = 0
KES1 191410Z 30004KT 04/M02 A2993 RMK A01 T00351022  RH  066%=      5-min Rain = 0
KES1 191411Z 29004KT 03/M02 A2993 RMK A01 T00341021  RH  068%=      5-min Rain = 0
KES1 191412Z 28003KT 03/M02 A2993 RMK A01 T00331019  RH  069%=      5-min Rain = 0
KES1 191413Z 28003KT 03/M02 A2993 RMK A01 T00331018  RH  069%=      5-min Rain = 0
KES1 191414Z 27002KT 03/M02 A2993 RMK A01 T00341017  RH  070%=      5-min Rain = 0
KES1 191415Z 27002KT 04/M02 A2993 RMK A01 T00351015  RH  070%=      5-min Rain = 0
KES1 191416Z 27001KT 04/M01 A2993 RMK A01 T00361014  RH  070%=      5-min Rain = 0
KES1 191417Z 26001KT 04/M01 A2993 RMK A01 T00371014  RH  069%=      5-min Rain = 0
KES1 191418Z 26000KT 04/M01 A2993 RMK A01 T00391012  RH  069%=      5-min Rain = 0
KES1 191419Z 00000KT 04/M01 A2993 RMK A01 T00411009  RH  070%=      5-min Rain = 0
KES1 191420Z 00000KT 04/M01 A2993 RMK A01 T00441008  RH  069%=      5-min Rain = 0
KES1 191421Z 00000KT 05/M01 A2993 RMK A01 T00461007  RH  068%=      5-min Rain = 0
KES1 191422Z 25001KT 05/M01 A2993 RMK A01 T00481007  RH  067%=      5-min Rain = 0
KES1 191423Z 26001KT 05/M01 A2993 RMK A01 T00491008  RH  067%=      5-min Rain = 0
KES1 191424Z 27003KT 05/M01 A2993 RMK A01 T00511007  RH  066%=      5-min Rain = 0
KES1 191425Z 27004KT 05/M01 A2993 RMK A01 T00521007  RH  066%=      5-min Rain = 0
KES1 191426Z 28005KT 05/M01 A2994 RMK A01 T00531007  RH  065%=      5-min Rain = 0
KES1 191427Z 28007KT 05/M01 A2994 RMK A01 T00541006  RH  065%=      5-min Rain = 0
KES1 191428Z 28008KT 06/M01 A2994 RMK A01 T00561005  RH  065%=      5-min Rain = 0
KES1 191429Z 28008KT 06/M01 A2994 RMK A01 T00581006  RH  064%=      5-min Rain = 0
KES1 191430Z 28007KT 06/M01 A2994 RMK A01 T00591005  RH  063%=      5-min Rain = 0
KES1 191431Z 28005KT 06/M00 A2995 RMK A01 T00611004  RH  063%=      5-min Rain = 0
KES1 191432Z 27004KT 06/M00 A2995 RMK A01 T00631003  RH  063%=      5-min Rain = 0
KES1 191433Z 28004KT 07/M00 A2995 RMK A01 T00651002  RH  062%=      5-min Rain = 0
KES1 191434Z 28004KT 07/M00 A2995 RMK A01 T00681001  RH  062%=      5-min Rain = 0
KES1 191435Z 27004KT 07/00 A2995 RMK A01 T00710000  RH  061%=      5-min Rain = 0
KES1 191436Z 29004KT 07/00 A2995 RMK A01 T00730001  RH  060%=      5-min Rain = 0
KES1 191437Z 31005KT 08/00 A2995 RMK A01 T00760002  RH  059%=      5-min Rain = 0
KES1 191438Z 30006KT 08/00 A2994 RMK A01 T00780000  RH  058%=      5-min Rain = 0
KES1 191439Z 29004KT 08/M00 A2994 RMK A01 T00781001  RH  058%=      5-min Rain = 0
KES1 191440Z 29004KT 08/00 A2995 RMK A01 T00780000  RH  058%=      5-min Rain = 0
KES1 191441Z 30004KT 08/00 A2995 RMK A01 T007900-0  RH  057%=      5-min Rain = 0
KES1 191442Z 29005KT 08/M00 A2995 RMK A01 T00791001  RH  057%=      5-min Rain = 0
KES1 191443Z 28006KT 08/M00 A2995 RMK A01 T00791001  RH  057%=      5-min Rain = 0
KES1 191444Z 29005KT 08/M00 A2995 RMK A01 T00801001  RH  057%=      5-min Rain = 0
KES1 191445Z 30004KT 08/00 A2995 RMK A01 T008100-0  RH  057%=      5-min Rain = 0
KES1 191446Z 30005KT 08/00 A2995 RMK A01 T00820001  RH  057%=      5-min Rain = 0
KES1 191447Z 29004KT 08/00 A2995 RMK A01 T00840001  RH  056%=      5-min Rain = 0
KES1 191448Z 29003KT 09/00 A2995 RMK A01 T00850002  RH  056%=      5-min Rain = 0
KES1 191449Z 29003KT 09/00 A2995 RMK A01 T00860003  RH  056%=      5-min Rain = 0
KES1 191450Z 29005KT 09/00 A2995 RMK A01 T00890004  RH  055%=      5-min Rain = 0
KES1 191451Z 29005KT 09/00 A2995 RMK A01 T00890003  RH  055%=      5-min Rain = 0
KES1 191452Z 29004KT 09/00 A2995 RMK A01 T00900003  RH  055%=      5-min Rain = 0
KES1 191453Z 28004KT 09/00 A2995 RMK A01 T00910003  RH  054%=      5-min Rain = 0
KES1 191454Z 28004KT 09/00 A2995 RMK A01 T00920004  RH  054%=      5-min Rain = 0
KES1 191455Z 28005KT 09/01 A2995 RMK A01 T00930005  RH  054%=      5-min Rain = 0
KES1 191456Z 28004KT 09/01 A2995 RMK A01 T00940006  RH  054%=      5-min Rain = 0
KES1 191457Z 27003KT 10/01 A2995 RMK A01 T00960007  RH  054%=      5-min Rain = 0
KES1 191458Z 27004KT 10/01 A2995 RMK A01 T00990009  RH  053%=      5-min Rain = 0
KES1 191459Z 27006KT 10/01 A2995 RMK A01 T01000008  RH  053%=      5-min Rain = 0
KES1 191500Z 26006KT 10/01 A2995 RMK A01 T01010007  RH  052%=      5-min Rain = 0
KES1 191501Z 26005KT 10/01 A2995 RMK A01 T01010007  RH  052%=      5-min Rain = 0
KES1 191502Z 26006KT 10/01 A2995 RMK A01 T01010007  RH  052%=      5-min Rain = 0
KES1 191503Z 27006KT 10/01 A2995 RMK A01 T01020008  RH  052%=      5-min Rain = 0
KES1 191504Z 27006KT 10/01 A2995 RMK A01 T01040008  RH  052%=      5-min Rain = 0
KES1 191505Z 27006KT 11/01 A2995 RMK A01 T01050009  RH  051%=      5-min Rain = 0
KES1 191506Z 27006KT 11/01 A2995 RMK A01 T01070009  RH  051%=      5-min Rain = 0
KES1 191507Z 27006KT 11/01 A2995 RMK A01 T01070008  RH  050%=      5-min Rain = 0
KES1 191508Z 26007KT 11/01 A2995 RMK A01 T01070008  RH  050%=      5-min Rain = 0
KES1 191509Z 27005KT 11/01 A2995 RMK A01 T01080008  RH  050%=      5-min Rain = 0
KES1 191510Z 27005KT 11/01 A2995 RMK A01 T01090009  RH  050%=      5-min Rain = 0
KES1 191511Z 28004KT 11/01 A2995 RMK A01 T01110010  RH  050%=      5-min Rain = 0
KES1 191512Z 27006KT 11/01 A2995 RMK A01 T01130011  RH  049%=      5-min Rain = 0
KES1 191513Z 28005KT 11/01 A2995 RMK A01 T01130009  RH  049%=      5-min Rain = 0
KES1 191514Z 27005KT 11/01 A2995 RMK A01 T01140010  RH  049%=      5-min Rain = 0
KES1 191515Z 27006KT 12/01 A2995 RMK A01 T01150010  RH  049%=      5-min Rain = 0
KES1 191516Z 27005KT 12/01 A2995 RMK A01 T01150010  RH  048%=      5-min Rain = 0
KES1 191517Z 27005KT 12/01 A2995 RMK A01 T01160010  RH  048%=      5-min Rain = 0
KES1 191518Z 28005KT 12/01 A2995 RMK A01 T01180011  RH  048%=      5-min Rain = 0
KES1 191519Z 27005KT 12/01 A2995 RMK A01 T01200012  RH  048%=      5-min Rain = 0
KES1 191520Z 27004KT 12/01 A2995 RMK A01 T01200011  RH  047%=      5-min Rain = 0
KES1 191521Z 28005KT 12/01 A2995 RMK A01 T01210011  RH  047%=      5-min Rain = 0
KES1 191522Z 28005KT 12/01 A2995 RMK A01 T01210011  RH  047%=      5-min Rain = 0
KES1 191523Z 28005KT 12/01 A2995 RMK A01 T01220012  RH  047%=      5-min Rain = 0
KES1 191524Z 28004KT 12/01 A2995 RMK A01 T01230014  RH  047%=      5-min Rain = 0
KES1 191525Z 28004KT 13/01 A2996 RMK A01 T01250012  RH  046%=      5-min Rain = 0
KES1 191526Z 28005KT 13/01 A2996 RMK A01 T01250012  RH  046%=      5-min Rain = 0
KES1 191527Z 28006KT 13/01 A2996 RMK A01 T01260013  RH  046%=      5-min Rain = 0
KES1 191528Z 27005KT 13/01 A2996 RMK A01 T01260013  RH  046%=      5-min Rain = 0
KES1 191529Z 27005KT 13/01 A2996 RMK A01 T01280014  RH  046%=      5-min Rain = 0
KES1 191530Z 27005KT 13/01 A2996 RMK A01 T01290013  RH  045%=      5-min Rain = 0
KES1 191531Z 27004KT 13/01 A2996 RMK A01 T01290014  RH  045%=      5-min Rain = 0
KES1 191532Z 28003KT 13/02 A2996 RMK A01 T01310016  RH  045%=      5-min Rain = 0
KES1 191533Z 28004KT 13/02 A2996 RMK A01 T01340016  RH  045%=      5-min Rain = 0
KES1 191534Z 27004KT 13/02 A2996 RMK A01 T01340015  RH  044%=      5-min Rain = 0
KES1 191535Z 27004KT 13/02 A2996 RMK A01 T01330015  RH  045%=      5-min Rain = 0
KES1 191536Z 28005KT 13/02 A2996 RMK A01 T01340016  RH  044%=      5-min Rain = 0
KES1 191537Z 28005KT 14/02 A2996 RMK A01 T01350015  RH  044%=      5-min Rain = 0
KES1 191538Z 29005KT 14/02 A2996 RMK A01 T01350016  RH  044%=      5-min Rain = 0
KES1 191539Z 29005KT 14/02 A2996 RMK A01 T01350016  RH  044%=      5-min Rain = 0
KES1 191540Z 29004KT 14/02 A2996 RMK A01 T01360015  RH  044%=      5-min Rain = 0
KES1 191541Z 30004KT 14/02 A2996 RMK A01 T01360015  RH  044%=      5-min Rain = 0
KES1 191542Z 28005KT 14/02 A2996 RMK A01 T01360017  RH  044%=      5-min Rain = 0
KES1 191543Z 27004KT 14/02 A2996 RMK A01 T01380017  RH  044%=      5-min Rain = 0
KES1 191544Z 27003KT 14/02 A2996 RMK A01 T01400019  RH  044%=      5-min Rain = 0
KES1 191545Z 28004KT 14/02 A2996 RMK A01 T01420019  RH  043%=      5-min Rain = 0
KES1 191546Z 27005KT 14/02 A2996 RMK A01 T01440018  RH  043%=      5-min Rain = 0
KES1 191547Z 27005KT 14/02 A2996 RMK A01 T01440018  RH  042%=      5-min Rain = 0
KES1 191548Z 26005KT 14/02 A2996 RMK A01 T01430018  RH  043%=      5-min Rain = 0
KES1 191549Z 26004KT 14/02 A2996 RMK A01 T01430018  RH  043%=      5-min Rain = 0
KES1 191550Z 28003KT 14/02 A2996 RMK A01 T01440018  RH  042%=      5-min Rain = 0
KES1 191551Z 29006KT 15/02 A2996 RMK A01 T01450018  RH  042%=      5-min Rain = 0
KES1 191552Z 30004KT 15/02 A2996 RMK A01 T01450017  RH  042%=      5-min Rain = 0
KES1 191553Z 30004KT 14/02 A2996 RMK A01 T01440017  RH  042%=      5-min Rain = 0
KES1 191554Z 28004KT 15/02 A2996 RMK A01 T01450019  RH  043%=      5-min Rain = 0
KES1 191555Z 28006KT 15/02 A2996 RMK A01 T01470020  RH  042%=      5-min Rain = 0
KES1 191556Z 27004KT 15/02 A2996 RMK A01 T01470019  RH  042%=      5-min Rain = 0
KES1 191557Z 28005KT 15/02 A2996 RMK A01 T01470020  RH  042%=      5-min Rain = 0
KES1 191558Z 29005KT 15/02 A2996 RMK A01 T01490020  RH  042%=      5-min Rain = 0
KES1 191559Z 29005KT 15/02 A2996 RMK A01 T01490019  RH  042%=      5-min Rain = 0
KES1 191600Z 28005KT 15/02 A2996 RMK A01 T01480019  RH  042%=      5-min Rain = 0
KES1 191601Z 29004KT 15/02 A2996 RMK A01 T01480020  RH  042%=      5-min Rain = 0
KES1 191602Z 28006KT 15/02 A2996 RMK A01 T01490020  RH  042%=      5-min Rain = 0
KES1 191603Z 26004KT 15/02 A2996 RMK A01 T01500020  RH  041%=      5-min Rain = 0
KES1 191604Z 28003KT 15/02 A2996 RMK A01 T01500019  RH  041%=      5-min Rain = 0
KES1 191605Z 28002KT 15/02 A2996 RMK A01 T01490021  RH  042%=      5-min Rain = 0
KES1 191606Z 29003KT 15/02 A2996 RMK A01 T01520022  RH  041%=      5-min Rain = 0
KES1 191607Z 27003KT 15/02 A2996 RMK A01 T01530020  RH  041%=      5-min Rain = 0
KES1 191608Z 25002KT 15/02 A2996 RMK A01 T01530020  RH  041%=      5-min Rain = 0
KES1 191609Z 21000KT 15/02 A2996 RMK A01 T01520020  RH  041%=      5-min Rain = 0
KES1 191610Z 23001KT 15/02 A2996 RMK A01 T01520020  RH  041%=      5-min Rain = 0
KES1 191611Z 25003KT 16/02 A2996 RMK A01 T01550021  RH  041%=      5-min Rain = 0
KES1 191612Z 25003KT 16/02 A2996 RMK A01 T01550021  RH  040%=      5-min Rain = 0
KES1 191613Z 25003KT 16/02 A2996 RMK A01 T01550022  RH  041%=      5-min Rain = 0
KES1 191614Z 24002KT 16/02 A2996 RMK A01 T01570021  RH  040%=      5-min Rain = 0
KES1 191615Z 20002KT 16/02 A2995 RMK A01 T01570021  RH  040%=      5-min Rain = 0
KES1 191616Z 17001KT 16/02 A2995 RMK A01 T01590023  RH  040%=      5-min Rain = 0
KES1 191617Z 16002KT 16/02 A2995 RMK A01 T01610023  RH  039%=      5-min Rain = 0
KES1 191618Z 17002KT 16/02 A2995 RMK A01 T01630023  RH  039%=      5-min Rain = 0
KES1 191619Z 22002KT 16/02 A2995 RMK A01 T01630022  RH  039%=      5-min Rain = 0
KES1 191620Z 24001KT 16/02 A2995 RMK A01 T01640024  RH  039%=      5-min Rain = 0
KES1 191621Z 23003KT 17/03 A2995 RMK A01 T01660025  RH  039%=      5-min Rain = 0
KES1 191622Z 21002KT 17/02 A2995 RMK A01 T01680024  RH  038%=      5-min Rain = 0
KES1 191623Z 22002KT 17/02 A2995 RMK A01 T01670023  RH  038%=      5-min Rain = 0
KES1 191624Z 22001KT 17/02 A2995 RMK A01 T01660022  RH  038%=      5-min Rain = 0
KES1 191625Z 17002KT 17/02 A2995 RMK A01 T01660023  RH  038%=      5-min Rain = 0
KES1 191626Z 23002KT 17/02 A2995 RMK A01 T01670023  RH  038%=      5-min Rain = 0
KES1 191627Z 26001KT 17/02 A2995 RMK A01 T01680023  RH  038%=      5-min Rain = 0
KES1 191628Z 27001KT 17/02 A2995 RMK A01 T01680022  RH  038%=      5-min Rain = 0
KES1 191629Z 32001KT 17/02 A2995 RMK A01 T01680024  RH  038%=      5-min Rain = 0
KES1 191630Z 22002KT 17/02 A2995 RMK A01 T01690024  RH  038%=      5-min Rain = 0
KES1 191631Z 24001KT 17/02 A2995 RMK A01 T01700023  RH  037%=      5-min Rain = 0
KES1 191632Z 22003KT 17/02 A2995 RMK A01 T01710024  RH  037%=      5-min Rain = 0
KES1 191633Z 21002KT 17/02 A2995 RMK A01 T01720024  RH  037%=      5-min Rain = 0
KES1 191634Z 21002KT 17/02 A2995 RMK A01 T01720024  RH  037%=      5-min Rain = 0
KES1 191635Z 21001KT 17/02 A2995 RMK A01 T01720024  RH  037%=      5-min Rain = 0
KES1 191636Z 22001KT 17/02 A2995 RMK A01 T01730024  RH  037%=      5-min Rain = 0
KES1 191637Z 21003KT 17/02 A2995 RMK A01 T01740024  RH  037%=      5-min Rain = 0
KES1 191638Z 21002KT 18/03 A2995 RMK A01 T01750025  RH  037%=      5-min Rain = 0
KES1 191639Z 22002KT 18/03 A2995 RMK A01 T01760025  RH  036%=      5-min Rain = 0
KES1 191640Z 22002KT 18/03 A2995 RMK A01 T01780026  RH  036%=      5-min Rain = 0
KES1 191641Z 23002KT 18/03 A2994 RMK A01 T01800026  RH  036%=      5-min Rain = 0
KES1 191642Z 23002KT 18/03 A2994 RMK A01 T01810026  RH  035%=      5-min Rain = 0
KES1 191643Z 21001KT 18/03 A2994 RMK A01 T01820026  RH  035%=      5-min Rain = 0
KES1 191644Z 12001KT 18/03 A2994 RMK A01 T01830026  RH  035%=      5-min Rain = 0
KES1 191645Z 14001KT 18/03 A2994 RMK A01 T01840026  RH  035%=      5-min Rain = 0
KES1 191646Z 15003KT 19/03 A2994 RMK A01 T01860027  RH  035%=      5-min Rain = 0
KES1 191647Z 15003KT 19/03 A2994 RMK A01 T01880027  RH  034%=      5-min Rain = 0
KES1 191648Z 17004KT 19/03 A2994 RMK A01 T01890026  RH  034%=      5-min Rain = 0
KES1 191649Z 16004KT 19/03 A2994 RMK A01 T01910025  RH  033%=      5-min Rain = 0
KES1 191650Z 17004KT 19/03 A2994 RMK A01 T01930026  RH  033%=      5-min Rain = 0
KES1 191651Z 16004KT 20/03 A2994 RMK A01 T01950026  RH  032%=      5-min Rain = 0
KES1 191652Z 16006KT 20/03 A2994 RMK A01 T01980028  RH  032%=      5-min Rain = 0
KES1 191653Z 18008KT 20/03 A2994 RMK A01 T02010027  RH  032%=      5-min Rain = 0
KES1 191654Z 18007KT 20/03 A2994 RMK A01 T02010027  RH  031%=      5-min Rain = 0
KES1 191655Z 17007KT 20/03 A2994 RMK A01 T02010027  RH  031%=      5-min Rain = 0
KES1 191656Z 15005KT 20/03 A2994 RMK A01 T02000026  RH  032%=      5-min Rain = 0
KES1 191657Z 17009KT 20/03 A2994 RMK A01 T02000026  RH  032%=      5-min Rain = 0
KES1 191658Z 16009KT 20/03 A2994 RMK A01 T02010025  RH  031%=      5-min Rain = 0
KES1 191659Z 15008KT 20/03 A2994 RMK A01 T02020025  RH  031%=      5-min Rain = 0
KES1 191700Z 16008KT 20/02 A2993 RMK A01 T02030024  RH  031%=      5-min Rain = 0
KES1 191701Z 16006KT 20/02 A2993 RMK A01 T02040024  RH  030%=      5-min Rain = 0
KES1 191702Z 15006KT 21/03 A2993 RMK A01 T02050026  RH  031%=      5-min Rain = 0
KES1 191703Z 16007KT 21/03 A2993 RMK A01 T02070026  RH  030%=      5-min Rain = 0
KES1 191704Z 15007KT 21/03 A2993 RMK A01 T02080025  RH  030%=      5-min Rain = 0
KES1 191705Z 16005KT 21/03 A2993 RMK A01 T02080025  RH  030%=      5-min Rain = 0
KES1 191706Z 18009KT 21/02 A2993 RMK A01 T02070023  RH  029%=      5-min Rain = 0
KES1 191707Z 17007KT 21/02 A2993 RMK A01 T02060023  RH  030%=      5-min Rain = 0
KES1 191708Z 17007KT 21/02 A2993 RMK A01 T02060023  RH  030%=      5-min Rain = 0
KES1 191709Z 18008KT 21/02 A2993 RMK A01 T02070023  RH  030%=      5-min Rain = 0
KES1 191710Z 15008KT 21/02 A2993 RMK A01 T02070024  RH  030%=      5-min Rain = 0
KES1 191711Z 14008KT 21/02 A2993 RMK A01 T02070023  RH  029%=      5-min Rain = 0
KES1 191712Z 14009KT 21/02 A2993 RMK A01 T02080024  RH  030%=      5-min Rain = 0
KES1 191713Z 16007KT 21/02 A2993 RMK A01 T02080024  RH  030%=      5-min Rain = 0
KES1 191714Z 16009KT 21/02 A2993 RMK A01 T02090024  RH  029%=      5-min Rain = 0
KES1 191715Z 15008KT 21/02 A2993 RMK A01 T02090023  RH  029%=      5-min Rain = 0
KES1 191716Z 15009KT 21/02 A2993 RMK A01 T02090023  RH  029%=      5-min Rain = 0
KES1 191717Z 14010KT 21/02 A2993 RMK A01 T02100023  RH  029%=      5-min Rain = 0
KES1 191718Z 13010KT 21/02 A2992 RMK A01 T02090022  RH  029%=      5-min Rain = 0
KES1 191719Z 15010KT 21/02 A2992 RMK A01 T02080022  RH  029%=      5-min Rain = 0
KES1 191720Z 14010KT 21/02 A2992 RMK A01 T02080022  RH  029%=      5-min Rain = 0
KES1 191721Z 15010KT 21/02 A2992 RMK A01 T02090022  RH  029%=      5-min Rain = 0
KES1 191722Z 14011KT 21/02 A2992 RMK A01 T02100021  RH  029%=      5-min Rain = 0
KES1 191723Z 15010KT 21/02 A2992 RMK A01 T02080021  RH  029%=      5-min Rain = 0
KES1 191724Z 16008KT 21/02 A2992 RMK A01 T02070021  RH  029%=      5-min Rain = 0
KES1 191725Z 13011KT 21/02 A2992 RMK A01 T02070021  RH  029%=      5-min Rain = 0
KES1 191726Z 15011KT 21/02 A2992 RMK A01 T02070021  RH  029%=      5-min Rain = 0
KES1 191727Z 15011KT 21/02 A2991 RMK A01 T02070020  RH  029%=      5-min Rain = 0
KES1 191728Z 15009G14KT 21/02 A2991 RMK A01 T02070021  RH  029%=      5-min Rain = 0
KES1 191729Z 15012KT 21/02 A2991 RMK A01 T02070021  RH  029%=      5-min Rain = 0
KES1 191730Z 15013KT 21/02 A2991 RMK A01 T02060020  RH  029%=      5-min Rain = 0
KES1 191731Z 15010KT 21/02 A2991 RMK A01 T02050020  RH  029%=      5-min Rain = 0
KES1 191732Z 14011KT 21/02 A2991 RMK A01 T02050021  RH  029%=      5-min Rain = 0
KES1 191733Z 14009KT 21/02 A2991 RMK A01 T02070022  RH  029%=      5-min Rain = 0
KES1 191734Z 15010KT 21/02 A2991 RMK A01 T02100024  RH  029%=      5-min Rain = 0
KES1 191735Z 15007KT 21/02 A2991 RMK A01 T02120023  RH  029%=      5-min Rain = 0
KES1 191736Z 15011KT 21/02 A2991 RMK A01 T02140024  RH  028%=      5-min Rain = 0
KES1 191737Z 15013KT 22/02 A2991 RMK A01 T02160023  RH  028%=      5-min Rain = 0
KES1 191738Z 15012KT 22/02 A2991 RMK A01 T02170021  RH  027%=      5-min Rain = 0
KES1 191739Z 14009KT 22/02 A2991 RMK A01 T02170022  RH  028%=      5-min Rain = 0
KES1 191740Z 14010KT 22/02 A2991 RMK A01 T02170022  RH  028%=      5-min Rain = 0
KES1 191741Z 14009KT 22/02 A2991 RMK A01 T02190023  RH  028%=      5-min Rain = 0
KES1 191742Z 13008KT 22/02 A299 RMK A01 T02190023  RH  027%=      5-min Rain = 0
KES1 191743Z 14013G18KT 22/02 A299 RMK A01 T02200023  RH  027%=      5-min Rain = 0
KES1 191744Z 15012KT 22/02 A299 RMK A01 T02190021  RH  027%=      5-min Rain = 0
KES1 191745Z 16010KT 22/02 A299 RMK A01 T02190022  RH  027%=      5-min Rain = 0
KES1 191746Z 15010KT 22/02 A299 RMK A01 T02190021  RH  027%=      5-min Rain = 0
KES1 191747Z 14009KT 22/02 A299 RMK A01 T02210023  RH  027%=      5-min Rain = 0
KES1 191748Z 14013KT 22/02 A299 RMK A01 T02230023  RH  027%=      5-min Rain = 0
KES1 191749Z 14012KT 22/02 A299 RMK A01 T02230022  RH  027%=      5-min Rain = 0
KES1 191750Z 14011KT 22/02 A299 RMK A01 T02220022  RH  027%=      5-min Rain = 0
KES1 191751Z 16011KT 22/02 A299 RMK A01 T02230023  RH  027%=      5-min Rain = 0
KES1 191752Z 16011KT 22/02 A299 RMK A01 T02230023  RH  027%=      5-min Rain = 0
KES1 191753Z 17011KT 22/02 A299 RMK A01 T02240023  RH  027%=      5-min Rain = 0
KES1 191754Z 16009KT 22/02 A299 RMK A01 T02240023  RH  027%=      5-min Rain = 0
KES1 191755Z 15010KT 23/03 A299 RMK A01 T02260025  RH  027%=      5-min Rain = 0
KES1 191756Z 15008KT 23/03 A2989 RMK A01 T02270025  RH  026%=      5-min Rain = 0
KES1 191757Z 14010KT 23/03 A2989 RMK A01 T02290025  RH  026%=      5-min Rain = 0
KES1 191758Z 13010KT 23/03 A2989 RMK A01 T02300025  RH  026%=      5-min Rain = 0
KES1 191759Z 14009KT 23/03 A2989 RMK A01 T02300026  RH  026%=      5-min Rain = 0
KES1 191800Z 15013KT 23/03 A2989 RMK A01 T02310025  RH  026%=      5-min Rain = 0
KES1 191801Z 15013KT 23/02 A2989 RMK A01 T02330024  RH  025%=      5-min Rain = 0
KES1 191802Z 15013KT 23/02 A2989 RMK A01 T02320024  RH  025%=      5-min Rain = 0
KES1 191803Z 15012KT 23/02 A2989 RMK A01 T02320024  RH  026%=      5-min Rain = 0
KES1 191804Z 15013KT 23/03 A2989 RMK A01 T02300025  RH  026%=      5-min Rain = 0
KES1 191805Z 14014KT 23/02 A2989 RMK A01 T02290024  RH  026%=      5-min Rain = 0
KES1 191806Z 14014KT 23/02 A2989 RMK A01 T02280024  RH  026%=      5-min Rain = 0
KES1 191807Z 15013KT 23/02 A2989 RMK A01 T02270024  RH  026%=      5-min Rain = 0
KES1 191808Z 15015KT 23/02 A2989 RMK A01 T02270024  RH  026%=      5-min Rain = 0
KES1 191809Z 15014KT 23/02 A2989 RMK A01 T02270024  RH  026%=      5-min Rain = 0
KES1 191810Z 15013KT 23/03 A2989 RMK A01 T02280025  RH  026%=      5-min Rain = 0
KES1 191811Z 15014KT 23/02 A2989 RMK A01 T02270024  RH  026%=      5-min Rain = 0
KES1 191812Z 14013KT 23/03 A2988 RMK A01 T02290026  RH  026%=      5-min Rain = 0
KES1 191813Z 14012KT 23/03 A2988 RMK A01 T02300026  RH  026%=      5-min Rain = 0
KES1 191814Z 17013KT 23/03 A2988 RMK A01 T02310027  RH  026%=      5-min Rain = 0
KES1 191815Z 16012KT 23/03 A2988 RMK A01 T02330027  RH  026%=      5-min Rain = 0
KES1 191816Z 16011KT 23/03 A2988 RMK A01 T02320027  RH  026%=      5-min Rain = 0
KES1 191817Z 16009KT 23/03 A2988 RMK A01 T02310027  RH  026%=      5-min Rain = 0
KES1 191818Z 14015KT 23/03 A2988 RMK A01 T02310027  RH  026%=      5-min Rain = 0
KES1 191819Z 15015KT 23/03 A2988 RMK A01 T02300025  RH  026%=      5-min Rain = 0
KES1 191820Z 16014KT 23/03 A2988 RMK A01 T02290025  RH  026%=      5-min Rain = 0
KES1 191821Z 17013KT 23/03 A2988 RMK A01 T02290025  RH  026%=      5-min Rain = 0
KES1 191822Z 16011KT 23/03 A2988 RMK A01 T02300026  RH  026%=      5-min Rain = 0
KES1 191823Z 17015KT 23/03 A2988 RMK A01 T02310026  RH  026%=      5-min Rain = 0
KES1 191824Z 16014KT 23/03 A2988 RMK A01 T02300026  RH  026%=      5-min Rain = 0
KES1 191825Z 15013KT 23/03 A2988 RMK A01 T02300027  RH  026%=      5-min Rain = 0
KES1 191826Z 14015KT 23/03 A2988 RMK A01 T02340029  RH  026%=      5-min Rain = 0
KES1 191827Z 15015KT 24/03 A2988 RMK A01 T02360027  RH  025%=      5-min Rain = 0
KES1 191828Z 15014G19KT 24/03 A2988 RMK A01 T02350027  RH  025%=      5-min Rain = 0
KES1 191829Z 14016KT 24/03 A2988 RMK A01 T02350027  RH  026%=      5-min Rain = 0
KES1 191830Z 14013KT 23/03 A2988 RMK A01 T02340028  RH  026%=      5-min Rain = 0
KES1 191831Z 14013KT 23/03 A2987 RMK A01 T02320029  RH  026%=      5-min Rain = 0
KES1 191832Z 14014KT 23/03 A2987 RMK A01 T02320029  RH  026%=      5-min Rain = 0
KES1 191833Z 15016KT 23/03 A2987 RMK A01 T02320029  RH  026%=      5-min Rain = 0
KES1 191834Z 16015KT 23/03 A2987 RMK A01 T02330027  RH  026%=      5-min Rain = 0
KES1 191835Z 16013KT 23/03 A2987 RMK A01 T02340026  RH  026%=      5-min Rain = 0
KES1 191836Z 17012KT 24/03 A2987 RMK A01 T02350028  RH  026%=      5-min Rain = 0
KES1 191837Z 16015KT 24/03 A2987 RMK A01 T02360029  RH  026%=      5-min Rain = 0
KES1 191838Z 17015KT 24/03 A2987 RMK A01 T02370029  RH  026%=      5-min Rain = 0
KES1 191839Z 16015KT 24/03 A2986 RMK A01 T02360029  RH  026%=      5-min Rain = 0
KES1 191840Z 17012KT 24/03 A2986 RMK A01 T02360029  RH  026%=      5-min Rain = 0
KES1 191841Z 16013KT 24/03 A2986 RMK A01 T02360029  RH  026%=      5-min Rain = 0
KES1 191842Z 15015KT 24/03 A2986 RMK A01 T02350029  RH  026%=      5-min Rain = 0
KES1 191843Z 14017KT 24/03 A2986 RMK A01 T02350027  RH  026%=      5-min Rain = 0
KES1 191844Z 14016KT 24/03 A2986 RMK A01 T02350027  RH  026%=      5-min Rain = 0
KES1 191845Z 14015G21KT 24/03 A2986 RMK A01 T02360027  RH  025%=      5-min Rain = 0
KES1 191846Z 15015KT 24/03 A2986 RMK A01 T02370026  RH  025%=      5-min Rain = 0
KES1 191847Z 15013G19KT 24/03 A2986 RMK A01 T02380027  RH  025%=      5-min Rain = 0
KES1 191848Z 15015KT 24/03 A2985 RMK A01 T02410027  RH  025%=      5-min Rain = 0
KES1 191849Z 16015KT 24/03 A2985 RMK A01 T02410025  RH  024%=      5-min Rain = 0
KES1 191850Z 15015G20KT 24/03 A2985 RMK A01 T02400025  RH  024%=      5-min Rain = 0
KES1 191851Z 16017G22KT 24/03 A2985 RMK A01 T02400025  RH  025%=      5-min Rain = 0
KES1 191852Z 17016KT 24/03 A2985 RMK A01 T02390025  RH  025%=      5-min Rain = 0
KES1 191853Z 16017KT 24/03 A2985 RMK A01 T02370027  RH  025%=      5-min Rain = 0
KES1 191854Z 16017KT 24/03 A2985 RMK A01 T02370027  RH  025%=      5-min Rain = 0
KES1 191855Z 16014KT 24/03 A2985 RMK A01 T02370026  RH  025%=      5-min Rain = 0
KES1 191856Z 15015KT 24/03 A2985 RMK A01 T02390027  RH  025%=      5-min Rain = 0
KES1 191857Z 15015KT 24/03 A2985 RMK A01 T02400028  RH  025%=      5-min Rain = 0
KES1 191858Z 16015KT 24/03 A2985 RMK A01 T02410028  RH  025%=      5-min Rain = 0
KES1 191859Z 16013KT 24/03 A2985 RMK A01 T02410028  RH  025%=      5-min Rain = 0
KES1 191900Z 16013KT 24/03 A2985 RMK A01 T02430029  RH  025%=      5-min Rain = 0
KES1 191901Z 15015KT 24/03 A2985 RMK A01 T02430029  RH  025%=      5-min Rain = 0
KES1 191902Z 15016KT 24/03 A2985 RMK A01 T02420028  RH  025%=      5-min Rain = 0
KES1 191903Z 17014G19KT 24/03 A2985 RMK A01 T02410028  RH  025%=      5-min Rain = 0
KES1 191904Z 16014KT 24/03 A2984 RMK A01 T02400028  RH  025%=      5-min Rain = 0
KES1 191905Z 15015KT 24/03 A2984 RMK A01 T02410029  RH  025%=      5-min Rain = 0
KES1 191906Z 15017KT 24/03 A2984 RMK A01 T02430029  RH  025%=      5-min Rain = 0
KES1 191907Z 16015KT 24/03 A2984 RMK A01 T02430028  RH  025%=      5-min Rain = 0
KES1 191908Z 16017KT 24/03 A2984 RMK A01 T02420029  RH  025%=      5-min Rain = 0
KES1 191909Z 16016KT 24/03 A2984 RMK A01 T02410028  RH  025%=      5-min Rain = 0
KES1 191910Z 15017KT 24/03 A2984 RMK A01 T02400028  RH  025%=      5-min Rain = 0
KES1 191911Z 16017KT 24/03 A2984 RMK A01 T02400028  RH  025%=      5-min Rain = 0
KES1 191912Z 15015KT 24/03 A2984 RMK A01 T02410028  RH  025%=      5-min Rain = 0
KES1 191913Z 16014KT 24/03 A2984 RMK A01 T02410029  RH  025%=      5-min Rain = 0
KES1 191914Z 15015G22KT 24/03 A2984 RMK A01 T02430030  RH  025%=      5-min Rain = 0
KES1 191915Z 15016KT 24/03 A2984 RMK A01 T02440030  RH  025%=      5-min Rain = 0
KES1 191916Z 15014KT 24/03 A2984 RMK A01 T02440030  RH  025%=      5-min Rain = 0
KES1 191917Z 16013KT 24/03 A2984 RMK A01 T02440028  RH  024%=      5-min Rain = 0
KES1 191918Z 15017KT 25/03 A2984 RMK A01 T02450027  RH  024%=      5-min Rain = 0
KES1 191919Z 15013G18KT 25/03 A2983 RMK A01 T02450027  RH  024%=      5-min Rain = 0
KES1 191920Z 15016G21KT 24/03 A2984 RMK A01 T02440027  RH  024%=      5-min Rain = 0
KES1 191921Z 16015KT 24/03 A2984 RMK A01 T02420027  RH  025%=      5-min Rain = 0
KES1 191922Z 15015KT 24/03 A2983 RMK A01 T02410028  RH  025%=      5-min Rain = 0
KES1 191923Z 16018KT 24/03 A2983 RMK A01 T02410028  RH  025%=      5-min Rain = 0
KES1 191924Z 17017KT 24/03 A2983 RMK A01 T02420028  RH  025%=      5-min Rain = 0
KES1 191925Z 16016KT 24/03 A2983 RMK A01 T02420029  RH  025%=      5-min Rain = 0
KES1 191926Z 16017KT 24/03 A2983 RMK A01 T02430029  RH  025%=      5-min Rain = 0
KES1 191927Z 16016KT 24/03 A2983 RMK A01 T02430030  RH  025%=      5-min Rain = 0
KES1 191928Z 16013G20KT 24/03 A2983 RMK A01 T02440030  RH  025%=      5-min Rain = 0
KES1 191929Z 15014G19KT 25/03 A2983 RMK A01 T02480031  RH  025%=      5-min Rain = 0
KES1 191930Z 16018KT 25/03 A2983 RMK A01 T02490030  RH  024%=      5-min Rain = 0
KES1 191931Z 16015KT 25/03 A2983 RMK A01 T02490030  RH  024%=      5-min Rain = 0
KES1 191932Z 15018KT 25/03 A2983 RMK A01 T02500030  RH  024%=      5-min Rain = 0
KES1 191933Z 17015G21KT 25/03 A2983 RMK A01 T02490030  RH  024%=      5-min Rain = 0
KES1 191934Z 17014KT 25/03 A2983 RMK A01 T02490029  RH  024%=      5-min Rain = 0
KES1 191935Z 17017KT 25/03 A2983 RMK A01 T02500028  RH  024%=      5-min Rain = 0
KES1 191936Z 16014G21KT 25/03 A2983 RMK A01 T02510030  RH  024%=      5-min Rain = 0
KES1 191937Z 16018KT 25/03 A2983 RMK A01 T02540031  RH  024%=      5-min Rain = 0
KES1 191938Z 16018KT 26/03 A2982 RMK A01 T02560031  RH  023%=      5-min Rain = 0
KES1 191939Z 16016G22KT 25/03 A2983 RMK A01 T02540030  RH  023%=      5-min Rain = 0
KES1 191940Z 17015G21KT 25/03 A2983 RMK A01 T02530031  RH  024%=      5-min Rain = 0
KES1 191941Z 17012G18KT 25/03 A2982 RMK A01 T02530031  RH  024%=      5-min Rain = 0
KES1 191942Z 16012G18KT 25/03 A2982 RMK A01 T02530032  RH  024%=      5-min Rain = 0
KES1 191943Z 16016KT 26/03 A2982 RMK A01 T02560034  RH  024%=      5-min Rain = 0
KES1 191944Z 16018KT 26/03 A2982 RMK A01 T02570033  RH  023%=      5-min Rain = 0
KES1 191945Z 16015KT 26/03 A2982 RMK A01 T02550033  RH  024%=      5-min Rain = 0
KES1 191946Z 16017KT 25/03 A2982 RMK A01 T02540034  RH  024%=      5-min Rain = 0
KES1 191947Z 16015KT 25/03 A2982 RMK A01 T02530033  RH  024%=      5-min Rain = 0
KES1 191948Z 15016G22KT 25/03 A2982 RMK A01 T02540033  RH  024%=      5-min Rain = 0
KES1 191949Z 15017KT 26/03 A2982 RMK A01 T02550034  RH  024%=      5-min Rain = 0
KES1 191950Z 16016KT 25/03 A2982 RMK A01 T02530033  RH  024%=      5-min Rain = 0
KES1 191951Z 16016G21KT 25/03 A2982 RMK A01 T02540034  RH  024%=      5-min Rain = 0
KES1 191952Z 17017KT 25/03 A2982 RMK A01 T02540034  RH  024%=      5-min Rain = 0
KES1 191953Z 16016G21KT 25/03 A2981 RMK A01 T02520034  RH  024%=      5-min Rain = 0
KES1 191954Z 16018G23KT 25/03 A2981 RMK A01 T02510034  RH  024%=      5-min Rain = 0
KES1 191955Z 16019KT 25/03 A2981 RMK A01 T02510033  RH  024%=      5-min Rain = 0
KES1 191956Z 17017KT 25/03 A2981 RMK A01 T02510034  RH  024%=      5-min Rain = 0
KES1 191957Z 17016G21KT 25/03 A2981 RMK A01 T02510034  RH  025%=      5-min Rain = 0
KES1 191958Z 15017G23KT 25/03 A2981 RMK A01 T02510034  RH  025%=      5-min Rain = 0
KES1 191959Z 15011KT 25/04 A2981 RMK A01 T02520035  RH  025%=      5-min Rain = 0
KES1 192000Z 16016KT 26/04 A2981 RMK A01 T02570037  RH  024%=      5-min Rain = 0
KES1 192001Z 16017KT 26/04 A2981 RMK A01 T02590036  RH  024%=      5-min Rain = 0
KES1 192002Z 16017KT 26/04 A298 RMK A01 T02590035  RH  023%=      5-min Rain = 0
KES1 192003Z 17016G24KT 26/03 A2981 RMK A01 T02590033  RH  023%=      5-min Rain = 0
KES1 192004Z 17019KT 26/03 A298 RMK A01 T02580032  RH  023%=      5-min Rain = 0
KES1 192005Z 17015G20KT 26/03 A298 RMK A01 T02570032  RH  023%=      5-min Rain = 0
KES1 192006Z 16015G20KT 26/03 A298 RMK A01 T02580032  RH  023%=      5-min Rain = 0
KES1 192007Z 17022KT 26/03 A298 RMK A01 T02590031  RH  023%=      5-min Rain = 0
KES1 192008Z 17016KT 26/03 A298 RMK A01 T02570031  RH  023%=      5-min Rain = 0
KES1 192009Z 16014G19KT 26/03 A298 RMK A01 T02570032  RH  023%=      5-min Rain = 0
KES1 192010Z 17016G22KT 26/03 A298 RMK A01 T02580032  RH  023%=      5-min Rain = 0
KES1 192011Z 16014KT 26/03 A298 RMK A01 T02570033  RH  023%=      5-min Rain = 0
KES1 192012Z 16017G23KT 26/03 A298 RMK A01 T02560032  RH  023%=      5-min Rain = 0
KES1 192013Z 16016G22KT 25/03 A298 RMK A01 T02530032  RH  024%=      5-min Rain = 0
KES1 192014Z 16020KT 25/03 A298 RMK A01 T02500032  RH  024%=      5-min Rain = 0
KES1 192015Z 16016KT 25/03 A298 RMK A01 T02480032  RH  025%=      5-min Rain = 0
KES1 192016Z 17016G23KT 25/03 A298 RMK A01 T02470032  RH  025%=      5-min Rain = 0
KES1 192017Z 17016G22KT 25/03 A298 RMK A01 T02470031  RH  025%=      5-min Rain = 0
KES1 192018Z 17013KT 25/03 A298 RMK A01 T02460031  RH  025%=      5-min Rain = 0
KES1 192019Z 17012G18KT 25/03 A298 RMK A01 T02470032  RH  025%=      5-min Rain = 0
KES1 192020Z 16013KT 25/03 A298 RMK A01 T02490033  RH  025%=      5-min Rain = 0
KES1 192021Z 16015KT 25/03 A298 RMK A01 T02520034  RH  024%=      5-min Rain = 0
KES1 192022Z 17014KT 25/04 A298 RMK A01 T02530035  RH  024%=      5-min Rain = 0
KES1 192023Z 17014G20KT 26/03 A298 RMK A01 T02560034  RH  024%=      5-min Rain = 0
KES1 192024Z 17016KT 26/03 A298 RMK A01 T02580033  RH  023%=      5-min Rain = 0
KES1 192025Z 16014G19KT 26/03 A298 RMK A01 T02590034  RH  023%=      5-min Rain = 0
KES1 192026Z 16014G20KT 26/03 A298 RMK A01 T02600034  RH  023%=      5-min Rain = 0
KES1 192027Z 17017G22KT 26/03 A2979 RMK A01 T02610034  RH  023%=      5-min Rain = 0
KES1 192028Z 17012KT 26/03 A2979 RMK A01 T02610034  RH  023%=      5-min Rain = 0
KES1 192029Z 17014KT 26/03 A2979 RMK A01 T02620034  RH  023%=      5-min Rain = 0
KES1 192030Z 17012G18KT 26/03 A2979 RMK A01 T02620034  RH  023%=      5-min Rain = 0
KES1 192031Z 16014KT 26/04 A2979 RMK A01 T02620035  RH  023%=      5-min Rain = 0
KES1 192032Z 17019G25KT 26/04 A2979 RMK A01 T02630036  RH  023%=      5-min Rain = 0
KES1 192033Z 18013G20KT 26/04 A2979 RMK A01 T02640037  RH  023%=      5-min Rain = 0
KES1 192034Z 18011G18KT 27/04 A2979 RMK A01 T02670039  RH  023%=      5-min Rain = 0
KES1 192035Z 16017G22KT 27/04 A2979 RMK A01 T02690038  RH  023%=      5-min Rain = 0
KES1 192036Z 18014G19KT 27/04 A2979 RMK A01 T02660037  RH  023%=      5-min Rain = 0
KES1 192037Z 18020KT 26/03 A2979 RMK A01 T02640034  RH  023%=      5-min Rain = 0
KES1 192038Z 18019KT 26/03 A2979 RMK A01 T02620032  RH  023%=      5-min Rain = 0
KES1 192039Z 18012KT 26/03 A2979 RMK A01 T02620032  RH  023%=      5-min Rain = 0
KES1 192040Z 18017G22KT 26/03 A2979 RMK A01 T02630032  RH  022%=      5-min Rain = 0
KES1 192041Z 19018KT 27/03 A2979 RMK A01 T02650029  RH  022%=      5-min Rain = 0
KES1 192042Z 18015KT 27/03 A2979 RMK A01 T02650028  RH  021%=      5-min Rain = 0
KES1 192043Z 18013G18KT 27/03 A2979 RMK A01 T02660030  RH  022%=      5-min Rain = 0
KES1 192044Z 18014KT 27/03 A2979 RMK A01 T02670031  RH  022%=      5-min Rain = 0
KES1 192045Z 17014G19KT 27/03 A2979 RMK A01 T02680032  RH  022%=      5-min Rain = 0
KES1 192046Z 18018G24KT 27/03 A2979 RMK A01 T02680032  RH  022%=      5-min Rain = 0
KES1 192047Z 19018G23KT 27/03 A2979 RMK A01 T02680030  RH  021%=      5-min Rain = 0
KES1 192048Z 18014G19KT 27/03 A2979 RMK A01 T02670029  RH  022%=      5-min Rain = 0
KES1 192049Z 16015KT 27/03 A2979 RMK A01 T02660029  RH  022%=      5-min Rain = 0
KES1 192050Z 18014G19KT 27/03 A2979 RMK A01 T02660029  RH  022%=      5-min Rain = 0
KES1 192051Z 19018KT 27/03 A2979 RMK A01 T02660029  RH  022%=      5-min Rain = 0
KES1 192052Z 19018KT 27/03 A2979 RMK A01 T02660030  RH  022%=      5-min Rain = 0
KES1 192053Z 19016G24KT 27/03 A2979 RMK A01 T02650030  RH  022%=      5-min Rain = 0
KES1 192054Z 19019G25KT 27/03 A2979 RMK A01 T02650029  RH  022%=      5-min Rain = 0
KES1 192055Z 18016G21KT 27/03 A2979 RMK A01 T02650029  RH  022%=      5-min Rain = 0
KES1 192056Z 18015G20KT 27/03 A2979 RMK A01 T02650029  RH  022%=      5-min Rain = 0
KES1 192057Z 17012KT 27/03 A2979 RMK A01 T02650029  RH  022%=      5-min Rain = 0
KES1 192058Z 18014G20KT 27/03 A2979 RMK A01 T02650030  RH  022%=      5-min Rain = 0
KES1 192059Z 18020KT 27/03 A2979 RMK A01 T02660029  RH  022%=      5-min Rain = 0
KES1 192100Z 19017KT 27/03 A2979 RMK A01 T02660029  RH  022%=      5-min Rain = 0
KES1 192101Z 19018KT 27/03 A2979 RMK A01 T02660029  RH  022%=      5-min Rain = 0
KES1 192102Z 19014KT 26/03 A2979 RMK A01 T02640029  RH  022%=      5-min Rain = 0
KES1 192103Z 19015G23KT 26/03 A2979 RMK A01 T02640030  RH  022%=      5-min Rain = 0
KES1 192104Z 19019KT 27/03 A2979 RMK A01 T02650032  RH  022%=      5-min Rain = 0
KES1 192105Z 18014G20KT 26/03 A2979 RMK A01 T02640033  RH  022%=      5-min Rain = 0
KES1 192106Z 17014G20KT 26/03 A2979 RMK A01 T02640033  RH  023%=      5-min Rain = 0
KES1 192107Z 18017G22KT 26/03 A2979 RMK A01 T02640033  RH  022%=      5-min Rain = 0
KES1 192108Z 18015G21KT 26/03 A2979 RMK A01 T02640033  RH  022%=      5-min Rain = 0
KES1 192109Z 18018KT 26/03 A2979 RMK A01 T02630033  RH  023%=      5-min Rain = 0
KES1 192110Z 17016KT 26/03 A2979 RMK A01 T02630033  RH  023%=      5-min Rain = 0
KES1 192111Z 18015G20KT 26/03 A2979 RMK A01 T02630034  RH  023%=      5-min Rain = 0
KES1 192112Z 18015G20KT 26/03 A2979 RMK A01 T02640034  RH  023%=      5-min Rain = 0
KES1 192113Z 18016KT 26/04 A2979 RMK A01 T02640035  RH  023%=      5-min Rain = 0
KES1 192114Z 17016KT 26/04 A2979 RMK A01 T02630035  RH  023%=      5-min Rain = 0
KES1 192115Z 18015G21KT 26/04 A2979 RMK A01 T02630035  RH  023%=      5-min Rain = 0
KES1 192116Z 17017G22KT 26/04 A2979 RMK A01 T02630035  RH  023%=      5-min Rain = 0
KES1 192117Z 17014KT 26/04 A2979 RMK A01 T02620035  RH  023%=      5-min Rain = 0
KES1 192118Z 17010KT 26/04 A2979 RMK A01 T02630037  RH  023%=      5-min Rain = 0
KES1 192119Z 17014G20KT 26/04 A2979 RMK A01 T02640037  RH  023%=      5-min Rain = 0
KES1 192120Z 17009KT 27/04 A2979 RMK A01 T02650038  RH  023%=      5-min Rain = 0
KES1 192121Z 17017G22KT 27/04 A2979 RMK A01 T02670037  RH  023%=      5-min Rain = 0
KES1 192122Z 16015G20KT 27/04 A2978 RMK A01 T02660037  RH  023%=      5-min Rain = 0
KES1 192123Z 18017G23KT 27/04 A2978 RMK A01 T02650038  RH  023%=      5-min Rain = 0
KES1 192124Z 17014KT 26/04 A2978 RMK A01 T02640037  RH  023%=      5-min Rain = 0
KES1 192125Z 18015G22KT 26/04 A2978 RMK A01 T02630038  RH  023%=      5-min Rain = 0
KES1 192126Z 17013G18KT 26/04 A2978 RMK A01 T02620039  RH  024%=      5-min Rain = 0
KES1 192127Z 16013KT 26/04 A2978 RMK A01 T02620039  RH  024%=      5-min Rain = 0
KES1 192128Z 17011G16KT 26/04 A2978 RMK A01 T02630039  RH  024%=      5-min Rain = 0
KES1 192129Z 16013G18KT 26/04 A2978 RMK A01 T02640040  RH  024%=      5-min Rain = 0
KES1 192130Z 16016KT 27/04 A2978 RMK A01 T02650039  RH  023%=      5-min Rain = 0
KES1 192131Z 17014G21KT 26/04 A2978 RMK A01 T02640039  RH  023%=      5-min Rain = 0
KES1 192132Z 17013G18KT 26/04 A2978 RMK A01 T02640037  RH  023%=      5-min Rain = 0
KES1 192133Z 17014G20KT 27/04 A2978 RMK A01 T02650037  RH  023%=      5-min Rain = 0
KES1 192134Z 18016KT 27/04 A2978 RMK A01 T02650037  RH  023%=      5-min Rain = 0
KES1 192135Z 19015KT 27/04 A2978 RMK A01 T02650037  RH  023%=      5-min Rain = 0
KES1 192136Z 18013KT 27/04 A2978 RMK A01 T02650037  RH  023%=      5-min Rain = 0
KES1 192137Z 17015KT 27/04 A2978 RMK A01 T02660037  RH  023%=      5-min Rain = 0
KES1 192138Z 17015G21KT 27/04 A2978 RMK A01 T02660037  RH  023%=      5-min Rain = 0
KES1 192139Z 18017KT 27/04 A2978 RMK A01 T02660037  RH  023%=      5-min Rain = 0
KES1 192140Z 18018KT 27/04 A2978 RMK A01 T02660037  RH  023%=      5-min Rain = 0
KES1 192141Z 18013G19KT 26/04 A2978 RMK A01 T02640036  RH  023%=      5-min Rain = 0
KES1 192142Z 17012G17KT 26/04 A2978 RMK A01 T02640037  RH  023%=      5-min Rain = 0
KES1 192143Z 17015KT 27/04 A2978 RMK A01 T02650036  RH  023%=      5-min Rain = 0
KES1 192144Z 18014G20KT 27/04 A2978 RMK A01 T02650036  RH  023%=      5-min Rain = 0
KES1 192145Z 18014KT 26/04 A2978 RMK A01 T02640036  RH  023%=      5-min Rain = 0
KES1 192146Z 18014KT 27/04 A2978 RMK A01 T02650037  RH  023%=      5-min Rain = 0
KES1 192147Z 18011G19KT 27/04 A2978 RMK A01 T02660037  RH  023%=      5-min Rain = 0
KES1 192148Z 18016G22KT 27/04 A2978 RMK A01 T02670036  RH  023%=      5-min Rain = 0
KES1 192149Z 19016KT 27/04 A2978 RMK A01 T02670035  RH  022%=      5-min Rain = 0
KES1 192150Z 18014KT 27/03 A2978 RMK A01 T02670034  RH  022%=      5-min Rain = 0
KES1 192151Z 18014KT 27/03 A2978 RMK A01 T02660034  RH  022%=      5-min Rain = 0
KES1 192152Z 19016G23KT 27/03 A2978 RMK A01 T02660034  RH  022%=      5-min Rain = 0
KES1 192153Z 19013G19KT 27/03 A2978 RMK A01 T02660032  RH  022%=      5-min Rain = 0
KES1 192154Z 19012G18KT 27/03 A2978 RMK A01 T02670032  RH  022%=      5-min Rain = 0
KES1 192155Z 18015G20KT 27/03 A2978 RMK A01 T02670032  RH  022%=      5-min Rain = 0
KES1 192156Z 18012KT 27/03 A2978 RMK A01 T02670033  RH  022%=      5-min Rain = 0
KES1 192157Z 18014G20KT 27/03 A2978 RMK A01 T02670033  RH  022%=      5-min Rain = 0
KES1 192158Z 18013G18KT 27/03 A2978 RMK A01 T02660034  RH  022%=      5-min Rain = 0
KES1 192159Z 19012KT 27/03 A2978 RMK A01 T02650033  RH  022%=      5-min Rain = 0
KES1 192200Z 18013KT 27/03 A2978 RMK A01 T02650034  RH  022%=      5-min Rain = 0
KES1 192201Z 17011KT 27/03 A2978 RMK A01 T02650034  RH  022%=      5-min Rain = 0
KES1 192202Z 17016KT 27/03 A2978 RMK A01 T02650033  RH  022%=      5-min Rain = 0
KES1 192203Z 17014KT 27/03 A2978 RMK A01 T02650033  RH  022%=      5-min Rain = 0
KES1 192204Z 17014G20KT 26/03 A2978 RMK A01 T02630032  RH  022%=      5-min Rain = 0
KES1 192205Z 17013KT 26/03 A2978 RMK A01 T02630032  RH  023%=      5-min Rain = 0
KES1 192206Z 17013G19KT 26/03 A2978 RMK A01 T02630033  RH  023%=      5-min Rain = 0
KES1 192207Z 16010KT 26/03 A2978 RMK A01 T02630034  RH  023%=      5-min Rain = 0
KES1 192208Z 18013G18KT 26/03 A2978 RMK A01 T02630034  RH  023%=      5-min Rain = 0
KES1 192209Z 17013KT 26/03 A2978 RMK A01 T02630034  RH  023%=      5-min Rain = 0
KES1 192210Z 17012KT 26/04 A2978 RMK A01 T02630035  RH  023%=      5-min Rain = 0
KES1 192211Z 17009KT 26/04 A2978 RMK A01 T02630035  RH  023%=      5-min Rain = 0
KES1 192212Z 18012G18KT 26/04 A2978 RMK A01 T02630035  RH  023%=      5-min Rain = 0
KES1 192213Z 18014KT 26/04 A2978 RMK A01 T02630035  RH  023%=      5-min Rain = 0
KES1 192214Z 18014G19KT 26/03 A2978 RMK A01 T02630034  RH  023%=      5-min Rain = 0
KES1 192215Z 18012G18KT 26/03 A2978 RMK A01 T02630034  RH  023%=      5-min Rain = 0
KES1 192216Z 19013G18KT 26/03 A2978 RMK A01 T02630034  RH  023%=      5-min Rain = 0
KES1 192217Z 18013G19KT 26/03 A2978 RMK A01 T02630033  RH  023%=      5-min Rain = 0
KES1 192218Z 17013G18KT 26/03 A2978 RMK A01 T02630033  RH  023%=      5-min Rain = 0
KES1 192219Z 17012KT 26/03 A2978 RMK A01 T02620032  RH  023%=      5-min Rain = 0
KES1 192220Z 17014KT 26/03 A2978 RMK A01 T02610031  RH  023%=      5-min Rain = 0
KES1 192221Z 17013KT 26/03 A2978 RMK A01 T02610032  RH  023%=      5-min Rain = 0
KES1 192222Z 17013KT 26/03 A2978 RMK A01 T02610032  RH  023%=      5-min Rain = 0
KES1 192223Z 17015G20KT 26/03 A2978 RMK A01 T02600032  RH  023%=      5-min Rain = 0
KES1 192224Z 18013G19KT 26/03 A2978 RMK A01 T02600032  RH  023%=      5-min Rain = 0
KES1 192225Z 18014G19KT 26/03 A2978 RMK A01 T02590032  RH  023%=      5-min Rain = 0
KES1 192226Z 18016G21KT 26/03 A2978 RMK A01 T02590032  RH  023%=      5-min Rain = 0
KES1 192227Z 18013KT 26/03 A2978 RMK A01 T02600032  RH  023%=      5-min Rain = 0
KES1 192228Z 17011KT 26/03 A2978 RMK A01 T02590032  RH  023%=      5-min Rain = 0
KES1 192229Z 18012KT 26/03 A2978 RMK A01 T02600033  RH  023%=      5-min Rain = 0
KES1 192230Z 19011KT 26/03 A2978 RMK A01 T02590032  RH  023%=      5-min Rain = 0
KES1 192231Z 19013KT 26/03 A2978 RMK A01 T02600033  RH  023%=      5-min Rain = 0
KES1 192232Z 18009KT 26/03 A2978 RMK A01 T02590033  RH  023%=      5-min Rain = 0
KES1 192233Z 17009KT 26/03 A2978 RMK A01 T02590032  RH  023%=      5-min Rain = 0
KES1 192234Z 18015G20KT 26/03 A2977 RMK A01 T02590033  RH  023%=      5-min Rain = 0
KES1 192235Z 18014G19KT 26/03 A2977 RMK A01 T02580032  RH  023%=      5-min Rain = 0
KES1 192236Z 18012KT 26/03 A2977 RMK A01 T02580032  RH  023%=      5-min Rain = 0
KES1 192237Z 18013KT 26/03 A2977 RMK A01 T02580032  RH  023%=      5-min Rain = 0
KES1 192238Z 17013KT 26/03 A2977 RMK A01 T02570032  RH  023%=      5-min Rain = 0
KES1 192239Z 17011KT 26/03 A2977 RMK A01 T02570032  RH  023%=      5-min Rain = 0
KES1 192240Z 18012G18KT 26/03 A2977 RMK A01 T02570032  RH  023%=      5-min Rain = 0
KES1 192241Z 18012KT 26/03 A2977 RMK A01 T02560032  RH  023%=      5-min Rain = 0
KES1 192242Z 17013KT 26/03 A2977 RMK A01 T02560032  RH  023%=      5-min Rain = 0
KES1 192243Z 18014KT 26/03 A2977 RMK A01 T02560032  RH  023%=      5-min Rain = 0
KES1 192244Z 18013KT 26/03 A2977 RMK A01 T02560032  RH  023%=      5-min Rain = 0
KES1 192245Z 18013KT 26/03 A2977 RMK A01 T02560033  RH  023%=      5-min Rain = 0
KES1 192246Z 19009KT 26/03 A2977 RMK A01 T02560033  RH  023%=      5-min Rain = 0
KES1 192247Z 18013KT 26/03 A2977 RMK A01 T02560033  RH  023%=      5-min Rain = 0
KES1 192248Z 18010KT 26/03 A2977 RMK A01 T02560033  RH  024%=      5-min Rain = 0
KES1 192249Z 18010KT 26/03 A2977 RMK A01 T02550033  RH  024%=      5-min Rain = 0
KES1 192250Z 17011KT 26/04 A2977 RMK A01 T02550035  RH  024%=      5-min Rain = 0
KES1 192251Z 18013KT 25/04 A2977 RMK A01 T02540035  RH  024%=      5-min Rain = 0
KES1 192252Z 18012G18KT 25/04 A2977 RMK A01 T02540036  RH  024%=      5-min Rain = 0
KES1 192253Z 17012G18KT 25/04 A2977 RMK A01 T02530036  RH  025%=      5-min Rain = 0
KES1 192254Z 18014KT 25/04 A2977 RMK A01 T02520036  RH  025%=      5-min Rain = 0
KES1 192255Z 17011KT 25/04 A2977 RMK A01 T02520037  RH  025%=      5-min Rain = 0
KES1 192256Z 17012KT 25/04 A2977 RMK A01 T02510037  RH  025%=      5-min Rain = 0
KES1 192257Z 18011KT 25/04 A2977 RMK A01 T02510037  RH  025%=      5-min Rain = 0
KES1 192258Z 17011KT 25/04 A2977 RMK A01 T02510037  RH  025%=      5-min Rain = 0
KES1 192259Z 16012KT 25/04 A2978 RMK A01 T02500037  RH  025%=      5-min Rain = 0
KES1 192300Z 17011KT 25/04 A2977 RMK A01 T02490037  RH  025%=      5-min Rain = 0
KES1 192301Z 17009KT 25/04 A2978 RMK A01 T02490037  RH  025%=      5-min Rain = 0
KES1 192302Z 17010KT 25/04 A2978 RMK A01 T02480037  RH  025%=      5-min Rain = 0
KES1 192303Z 18012KT 25/04 A2978 RMK A01 T02480038  RH  026%=      5-min Rain = 0
KES1 192304Z 17012KT 25/04 A2978 RMK A01 T02470038  RH  026%=      5-min Rain = 0
KES1 192305Z 17011KT 25/04 A2978 RMK A01 T02470038  RH  026%=      5-min Rain = 0
KES1 192306Z 17011KT 25/04 A2978 RMK A01 T02460039  RH  026%=      5-min Rain = 0
KES1 192307Z 17009KT 25/04 A2978 RMK A01 T02460039  RH  026%=      5-min Rain = 0
KES1 192308Z 17009KT 25/04 A2978 RMK A01 T02450040  RH  026%=      5-min Rain = 0
KES1 192309Z 16009KT 24/04 A2978 RMK A01 T02440040  RH  027%=      5-min Rain = 0
KES1 192310Z 17011KT 24/04 A2978 RMK A01 T02430041  RH  027%=      5-min Rain = 0
KES1 192311Z 17009KT 24/04 A2978 RMK A01 T02420042  RH  027%=      5-min Rain = 0
KES1 192312Z 16008KT 24/04 A2978 RMK A01 T02420043  RH  027%=      5-min Rain = 0
KES1 192313Z 16010KT 24/04 A2978 RMK A01 T02410044  RH  028%=      5-min Rain = 0
KES1 192314Z 16011KT 24/05 A2978 RMK A01 T02400045  RH  028%=      5-min Rain = 0
KES1 192315Z 16010KT 24/05 A2978 RMK A01 T02400046  RH  028%=      5-min Rain = 0
KES1 192316Z 17011KT 24/05 A2978 RMK A01 T02390047  RH  029%=      5-min Rain = 0
KES1 192317Z 16010KT 24/05 A2978 RMK A01 T02380047  RH  029%=      5-min Rain = 0
KES1 192318Z 16009KT 24/05 A2978 RMK A01 T02370047  RH  029%=      5-min Rain = 0
KES1 192319Z 16009KT 24/05 A2978 RMK A01 T02360048  RH  029%=      5-min Rain = 0
KES1 192320Z 17009KT 24/05 A2978 RMK A01 T02350048  RH  030%=      5-min Rain = 0
KES1 192321Z 16011KT 24/05 A2978 RMK A01 T02350048  RH  030%=      5-min Rain = 0
KES1 192322Z 17009KT 23/05 A2978 RMK A01 T02340048  RH  030%=      5-min Rain = 0
KES1 192323Z 16010KT 23/05 A2978 RMK A01 T02330048  RH  030%=      5-min Rain = 0
KES1 192324Z 16010KT 23/05 A2978 RMK A01 T02320048  RH  030%=      5-min Rain = 0
KES1 192325Z 16010KT 23/05 A2978 RMK A01 T02320049  RH  030%=      5-min Rain = 0
KES1 192326Z 16011KT 23/05 A2978 RMK A01 T02320049  RH  031%=      5-min Rain = 0
KES1 192327Z 17011KT 23/05 A2978 RMK A01 T02320050  RH  031%=      5-min Rain = 0
KES1 192328Z 16011KT 23/05 A2978 RMK A01 T02320050  RH  031%=      5-min Rain = 0
KES1 192329Z 16010KT 23/05 A2978 RMK A01 T02310049  RH  031%=      5-min Rain = 0
KES1 192330Z 16009KT 23/05 A2978 RMK A01 T02300049  RH  031%=      5-min Rain = 0
KES1 192331Z 16008KT 23/05 A2978 RMK A01 T02290049  RH  031%=      5-min Rain = 0
KES1 192332Z 16009KT 23/05 A2978 RMK A01 T02270049  RH  031%=      5-min Rain = 0
KES1 192333Z 15009KT 23/05 A2978 RMK A01 T02260049  RH  032%=      5-min Rain = 0
KES1 192334Z 15008KT 23/05 A2977 RMK A01 T02250050  RH  032%=      5-min Rain = 0
KES1 192335Z 16007KT 22/05 A2977 RMK A01 T02240050  RH  032%=      5-min Rain = 0
KES1 192336Z 16009KT 22/05 A2977 RMK A01 T02230050  RH  032%=      5-min Rain = 0
KES1 192337Z 16009KT 22/05 A2977 RMK A01 T02220051  RH  033%=      5-min Rain = 0
KES1 192338Z 15008KT 22/05 A2977 RMK A01 T02220051  RH  033%=      5-min Rain = 0
KES1 192339Z 15008KT 22/05 A2977 RMK A01 T02210052  RH  033%=      5-min Rain = 0
KES1 192340Z 15009KT 22/05 A2977 RMK A01 T02200052  RH  033%=      5-min Rain = 0
KES1 192341Z 15007KT 22/05 A2977 RMK A01 T02200053  RH  034%=      5-min Rain = 0
KES1 192342Z 15007KT 22/05 A2977 RMK A01 T02190053  RH  034%=      5-min Rain = 0
KES1 192343Z 15008KT 22/05 A2977 RMK A01 T02180053  RH  034%=      5-min Rain = 0
KES1 192344Z 14008KT 22/05 A2977 RMK A01 T02170054  RH  035%=      5-min Rain = 0
KES1 192345Z 14008KT 22/06 A2977 RMK A01 T02170055  RH  035%=      5-min Rain = 0
KES1 192346Z 15008KT 22/06 A2977 RMK A01 T02160055  RH  035%=      5-min Rain = 0
KES1 192347Z 14009KT 22/06 A2977 RMK A01 T02160056  RH  035%=      5-min Rain = 0
KES1 192348Z 15008KT 22/06 A2977 RMK A01 T02150056  RH  035%=      5-min Rain = 0
KES1 192349Z 15008KT 21/06 A2977 RMK A01 T02140056  RH  036%=      5-min Rain = 0
KES1 192350Z 15006KT 21/06 A2977 RMK A01 T02140056  RH  036%=      5-min Rain = 0
KES1 192351Z 14007KT 21/06 A2977 RMK A01 T02120056  RH  036%=      5-min Rain = 0
KES1 192352Z 15007KT 21/06 A2977 RMK A01 T02110057  RH  037%=      5-min Rain = 0
KES1 192353Z 15007KT 21/06 A2977 RMK A01 T02110058  RH  037%=      5-min Rain = 0
KES1 192354Z 14008KT 21/06 A2977 RMK A01 T02110057  RH  037%=      5-min Rain = 0
KES1 192355Z 14008KT 21/06 A2977 RMK A01 T02100058  RH  037%=      5-min Rain = 0
KES1 192356Z 14008KT 21/06 A2977 RMK A01 T02100058  RH  037%=      5-min Rain = 0
KES1 192357Z 15007KT 21/06 A2977 RMK A01 T02100059  RH  037%=      5-min Rain = 0
KES1 192358Z 14007KT 21/06 A2977 RMK A01 T02090059  RH  038%=      5-min Rain = 0
KES1 192359Z 14008KT 21/06 A2977 RMK A01 T02090060  RH  038%=      5-min Rain = 0
KES1 200000Z 14008KT 21/06 A2978 RMK A01 T02090060  RH  038%=      5-min Rain = 0
KES1 200001Z 14007KT 21/06 A2978 RMK A01 T02080060  RH  038%=      5-min Rain = 0
KES1 200002Z 14007KT 21/06 A2978 RMK A01 T02080060  RH  038%=      5-min Rain = 0
KES1 200003Z 14007KT 21/06 A2978 RMK A01 T02070060  RH  038%=      5-min Rain = 0
KES1 200004Z 14008KT 21/06 A2978 RMK A01 T02060060  RH  038%=      5-min Rain = 0
KES1 200005Z 14008KT 21/06 A2978 RMK A01 T02060060  RH  039%=      5-min Rain = 0
KES1 200006Z 14008KT 21/06 A2978 RMK A01 T02060060  RH  039%=      5-min Rain = 0
KES1 200007Z 14008KT 21/06 A2978 RMK A01 T02060060  RH  039%=      5-min Rain = 0
KES1 200008Z 14008KT 21/06 A2978 RMK A01 T02050060  RH  039%=      5-min Rain = 0
KES1 200009Z 14007KT 21/06 A2978 RMK A01 T02050060  RH  039%=      5-min Rain = 0
KES1 200010Z 14008KT 20/06 A2978 RMK A01 T02040061  RH  039%=      5-min Rain = 0
KES1 200011Z 14008KT 20/06 A2978 RMK A01 T02040061  RH  039%=      5-min Rain = 0
KES1 200012Z 14008KT 20/06 A2978 RMK A01 T02040060  RH  039%=      5-min Rain = 0
KES1 200013Z 14007KT 20/06 A2978 RMK A01 T02030060  RH  039%=      5-min Rain = 0
KES1 200014Z 14007KT 20/06 A2978 RMK A01 T02020060  RH  040%=      5-min Rain = 0
KES1 200015Z 14007KT 20/06 A2978 RMK A01 T02020060  RH  040%=      5-min Rain = 0
KES1 200016Z 14008KT 20/06 A2978 RMK A01 T02010060  RH  040%=      5-min Rain = 0
KES1 200017Z 14009KT 20/06 A2978 RMK A01 T02000060  RH  040%=      5-min Rain = 0
KES1 200018Z 14007KT 20/06 A2978 RMK A01 T02000061  RH  040%=      5-min Rain = 0
KES1 200019Z 14009KT 20/06 A2978 RMK A01 T01990060  RH  040%=      5-min Rain = 0
KES1 200020Z 14007KT 20/06 A2978 RMK A01 T01990061  RH  040%=      5-min Rain = 0
KES1 200021Z 14006KT 20/06 A2978 RMK A01 T02000061  RH  040%=      5-min Rain = 0
KES1 200022Z 14008KT 20/06 A2978 RMK A01 T01990060  RH  040%=      5-min Rain = 0
KES1 200023Z 14008KT 20/06 A2978 RMK A01 T01980060  RH  040%=      5-min Rain = 0
KES1 200024Z 14007KT 20/06 A2978 RMK A01 T01980061  RH  041%=      5-min Rain = 0
KES1 200025Z 14006KT 20/06 A2978 RMK A01 T01970060  RH  041%=      5-min Rain = 0
KES1 200026Z 14007KT 20/06 A2979 RMK A01 T01970060  RH  041%=      5-min Rain = 0
KES1 200027Z 14005KT 20/06 A2979 RMK A01 T01960060  RH  041%=      5-min Rain = 0
KES1 200028Z 14005KT 20/06 A2979 RMK A01 T01950060  RH  041%=      5-min Rain = 0
KES1 200029Z 14005KT 19/06 A2979 RMK A01 T01940059  RH  041%=      5-min Rain = 0
KES1 200030Z 13006KT 19/06 A2978 RMK A01 T01940060  RH  041%=      5-min Rain = 0
KES1 200031Z 13006KT 19/06 A2978 RMK A01 T01930060  RH  042%=      5-min Rain = 0
KES1 200032Z 13006KT 19/06 A2978 RMK A01 T01930059  RH  042%=      5-min Rain = 0
KES1 200033Z 13006KT 19/06 A2978 RMK A01 T01920059  RH  042%=      5-min Rain = 0
KES1 200034Z 13006KT 19/06 A2978 RMK A01 T01920060  RH  042%=      5-min Rain = 0
KES1 200035Z 13006KT 19/06 A2978 RMK A01 T01920059  RH  042%=      5-min Rain = 0
KES1 200036Z 13006KT 19/06 A2978 RMK A01 T01910059  RH  042%=      5-min Rain = 0
KES1 200037Z 13006KT 19/06 A2978 RMK A01 T01910059  RH  042%=      5-min Rain = 0
KES1 200038Z 13006KT 19/06 A2978 RMK A01 T01900059  RH  042%=      5-min Rain = 0
KES1 200039Z 13006KT 19/06 A2978 RMK A01 T01890058  RH  042%=      5-min Rain = 0
KES1 200040Z 13007KT 19/06 A2978 RMK A01 T01880059  RH  043%=      5-min Rain = 0
KES1 200041Z 13006KT 19/06 A2978 RMK A01 T01870058  RH  043%=      5-min Rain = 0
KES1 200042Z 13007KT 19/06 A2978 RMK A01 T01870059  RH  043%=      5-min Rain = 0
KES1 200043Z 13007KT 19/06 A2978 RMK A01 T01860059  RH  043%=      5-min Rain = 0
KES1 200044Z 13007KT 19/06 A2978 RMK A01 T01860059  RH  043%=      5-min Rain = 0
KES1 200045Z 13008KT 19/06 A2978 RMK A01 T01860059  RH  043%=      5-min Rain = 0
KES1 200046Z 13008KT 19/06 A2978 RMK A01 T01860059  RH  043%=      5-min Rain = 0
KES1 200047Z 13008KT 19/06 A2978 RMK A01 T01860059  RH  043%=      5-min Rain = 0
KES1 200048Z 13008KT 19/06 A2978 RMK A01 T01860059  RH  043%=      5-min Rain = 0
KES1 200049Z 13008KT 19/06 A2978 RMK A01 T01860058  RH  043%=      5-min Rain = 0
KES1 200050Z 13008KT 19/06 A2978 RMK A01 T01860058  RH  043%=      5-min Rain = 0
KES1 200051Z 13008KT 19/06 A2978 RMK A01 T01850058  RH  043%=      5-min Rain = 0
KES1 200052Z 14008KT 19/06 A2978 RMK A01 T01850058  RH  043%=      5-min Rain = 0
KES1 200053Z 13008KT 18/06 A2978 RMK A01 T01840058  RH  043%=      5-min Rain = 0
KES1 200054Z 13008KT 18/06 A2978 RMK A01 T01840058  RH  043%=      5-min Rain = 0
KES1 200055Z 14008KT 18/06 A2978 RMK A01 T01840057  RH  043%=      5-min Rain = 0
KES1 200056Z 14008KT 18/06 A2978 RMK A01 T01840057  RH  043%=      5-min Rain = 0
KES1 200057Z 13008KT 18/06 A2978 RMK A01 T01840057  RH  043%=      5-min Rain = 0
KES1 200058Z 14008KT 18/06 A2978 RMK A01 T01840057  RH  043%=      5-min Rain = 0
KES1 200059Z 13007KT 18/06 A2978 RMK A01 T01840056  RH  043%=      5-min Rain = 0
KES1 200100Z 14008KT 18/06 A2978 RMK A01 T01840056  RH  043%=      5-min Rain = 0
KES1 200101Z 13007KT 18/06 A2978 RMK A01 T01830056  RH  043%=      5-min Rain = 0
KES1 200102Z 14007KT 18/06 A2978 RMK A01 T01830055  RH  043%=      5-min Rain = 0
KES1 200103Z 14008KT 18/06 A2978 RMK A01 T01830055  RH  043%=      5-min Rain = 0
KES1 200104Z 14007KT 18/06 A2978 RMK A01 T01820055  RH  043%=      5-min Rain = 0
KES1 200105Z 14007KT 18/05 A2979 RMK A01 T01820054  RH  043%=      5-min Rain = 0
KES1 200106Z 13007KT 18/05 A2979 RMK A01 T01820054  RH  043%=      5-min Rain = 0
KES1 200107Z 14007KT 18/05 A2979 RMK A01 T01810053  RH  043%=      5-min Rain = 0
KES1 200108Z 14007KT 18/05 A2979 RMK A01 T01810053  RH  043%=      5-min Rain = 0
KES1 200109Z 14007KT 18/05 A2979 RMK A01 T01800052  RH  043%=      5-min Rain = 0
KES1 200110Z 14008KT 18/05 A2979 RMK A01 T01800052  RH  043%=      5-min Rain = 0
KES1 200111Z 14007KT 18/05 A2978 RMK A01 T01800052  RH  043%=      5-min Rain = 0
KES1 200112Z 14007KT 18/05 A2978 RMK A01 T01800051  RH  043%=      5-min Rain = 0
KES1 200113Z 14007KT 18/05 A2978 RMK A01 T01800051  RH  043%=      5-min Rain = 0
KES1 200114Z 14008KT 18/05 A2978 RMK A01 T01790051  RH  043%=      5-min Rain = 0
KES1 200115Z 14007KT 18/05 A2978 RMK A01 T01790050  RH  043%=      5-min Rain = 0
KES1 200116Z 14007KT 18/05 A2978 RMK A01 T01790050  RH  042%=      5-min Rain = 0
KES1 200117Z 14007KT 18/05 A2978 RMK A01 T01790050  RH  042%=      5-min Rain = 0
KES1 200118Z 14008KT 18/05 A2978 RMK A01 T01790049  RH  042%=      5-min Rain = 0
KES1 200119Z 14007KT 18/05 A2978 RMK A01 T01790049  RH  042%=      5-min Rain = 0
KES1 200120Z 14006KT 18/05 A2978 RMK A01 T01790048  RH  042%=      5-min Rain = 0
KES1 200121Z 14007KT 18/05 A2978 RMK A01 T01780048  RH  042%=      5-min Rain = 0
KES1 200122Z 14008KT 18/05 A2978 RMK A01 T01770047  RH  042%=      5-min Rain = 0
KES1 200123Z 15008KT 18/05 A2978 RMK A01 T01770046  RH  042%=      5-min Rain = 0
KES1 200124Z 14008KT 18/05 A2978 RMK A01 T01780046  RH  042%=      5-min Rain = 0
KES1 200125Z 14008KT 18/05 A2978 RMK A01 T01780046  RH  041%=      5-min Rain = 0
KES1 200126Z 14007KT 18/05 A2978 RMK A01 T01780045  RH  041%=      5-min Rain = 0
KES1 200127Z 14007KT 18/05 A2978 RMK A01 T01780045  RH  041%=      5-min Rain = 0
KES1 200128Z 14006KT 18/05 A2978 RMK A01 T01780045  RH  041%=      5-min Rain = 0
KES1 200129Z 14007KT 18/04 A2978 RMK A01 T01770044  RH  041%=      5-min Rain = 0
KES1 200130Z 15007KT 18/04 A2978 RMK A01 T01770044  RH  041%=      5-min Rain = 0
KES1 200131Z 14006KT 18/04 A2978 RMK A01 T01770043  RH  041%=      5-min Rain = 0
KES1 200132Z 14007KT 18/04 A2978 RMK A01 T01760043  RH  041%=      5-min Rain = 0
KES1 200133Z 14006KT 18/04 A2978 RMK A01 T01750042  RH  041%=      5-min Rain = 0
KES1 200134Z 14007KT 18/04 A2978 RMK A01 T01750042  RH  041%=      5-min Rain = 0
KES1 200135Z 14007KT 18/04 A2978 RMK A01 T01750042  RH  041%=      5-min Rain = 0
KES1 200136Z 14008KT 18/04 A2978 RMK A01 T01750041  RH  041%=      5-min Rain = 0
KES1 200137Z 15007KT 18/04 A2978 RMK A01 T01750041  RH  041%=      5-min Rain = 0
KES1 200138Z 14007KT 18/04 A2978 RMK A01 T01750041  RH  041%=      5-min Rain = 0
KES1 200139Z 15007KT 18/04 A2978 RMK A01 T01750041  RH  041%=      5-min Rain = 0
KES1 200140Z 15006KT 17/04 A2978 RMK A01 T01740040  RH  041%=      5-min Rain = 0
KES1 200141Z 15006KT 17/04 A2978 RMK A01 T01740040  RH  041%=      5-min Rain = 0
KES1 200142Z 15006KT 17/04 A2978 RMK A01 T01730040  RH  041%=      5-min Rain = 0
KES1 200143Z 15006KT 17/04 A2978 RMK A01 T01730040  RH  041%=      5-min Rain = 0
KES1 200144Z 15006KT 17/04 A2978 RMK A01 T01730040  RH  041%=      5-min Rain = 0
KES1 200145Z 15007KT 17/04 A2978 RMK A01 T01730040  RH  041%=      5-min Rain = 0
KES1 200146Z 15006KT 17/04 A2978 RMK A01 T01720039  RH  041%=      5-min Rain = 0
KES1 200147Z 15007KT 17/04 A2978 RMK A01 T01720039  RH  041%=      5-min Rain = 0
KES1 200148Z 16007KT 17/04 A2978 RMK A01 T01720039  RH  041%=      5-min Rain = 0
KES1 200149Z 15006KT 17/04 A2978 RMK A01 T01720039  RH  041%=      5-min Rain = 0
KES1 200150Z 15007KT 17/04 A2978 RMK A01 T01720039  RH  041%=      5-min Rain = 0
KES1 200151Z 16007KT 17/04 A2978 RMK A01 T01720039  RH  041%=      5-min Rain = 0
KES1 200152Z 16007KT 17/04 A2978 RMK A01 T01720039  RH  041%=      5-min Rain = 0
KES1 200153Z 15008KT 17/04 A2978 RMK A01 T01710039  RH  041%=      5-min Rain = 0
KES1 200154Z 15007KT 17/04 A2978 RMK A01 T01710039  RH  041%=      5-min Rain = 0
KES1 200155Z 16007KT 17/04 A2978 RMK A01 T01710039  RH  041%=      5-min Rain = 0
KES1 200156Z 15007KT 17/04 A2978 RMK A01 T01700039  RH  042%=      5-min Rain = 0
KES1 200157Z 15008KT 17/04 A2979 RMK A01 T01690039  RH  042%=      5-min Rain = 0
KES1 200158Z 16008KT 17/04 A2979 RMK A01 T01690039  RH  042%=      5-min Rain = 0
KES1 200159Z 15008KT 17/04 A2979 RMK A01 T01690038  RH  042%=      5-min Rain = 0
KES1 200200Z 15008KT 17/04 A2979 RMK A01 T01690039  RH  042%=      5-min Rain = 0
KES1 200201Z 16007KT 17/04 A2979 RMK A01 T01680038  RH  042%=      5-min Rain = 0
KES1 200202Z 16008KT 17/04 A2979 RMK A01 T01680038  RH  042%=      5-min Rain = 0
KES1 200203Z 16008KT 17/04 A2979 RMK A01 T01680038  RH  042%=      5-min Rain = 0
KES1 200204Z 16008KT 17/04 A2979 RMK A01 T01680038  RH  042%=      5-min Rain = 0
KES1 200205Z 16008KT 17/04 A2979 RMK A01 T01680038  RH  042%=      5-min Rain = 0
KES1 200206Z 16008KT 17/04 A2979 RMK A01 T01670038  RH  042%=      5-min Rain = 0
KES1 200207Z 16008KT 17/04 A2979 RMK A01 T01670038  RH  042%=      5-min Rain = 0
KES1 200208Z 16008KT 17/04 A2979 RMK A01 T01670038  RH  042%=      5-min Rain = 0
KES1 200209Z 16009KT 17/04 A2979 RMK A01 T01670038  RH  042%=      5-min Rain = 0
KES1 200210Z 16009KT 17/04 A2979 RMK A01 T01670038  RH  042%=      5-min Rain = 0
KES1 200211Z 16008KT 17/04 A2979 RMK A01 T01670037  RH  042%=      5-min Rain = 0
KES1 200212Z 16009KT 17/04 A2979 RMK A01 T01670037  RH  042%=      5-min Rain = 0
KES1 200213Z 15009KT 17/04 A2979 RMK A01 T01670037  RH  042%=      5-min Rain = 0
KES1 200214Z 15009KT 17/04 A2979 RMK A01 T01680038  RH  042%=      5-min Rain = 0
KES1 200215Z 15009KT 17/04 A2979 RMK A01 T01670037  RH  042%=      5-min Rain = 0
KES1 200216Z 16009KT 17/04 A2978 RMK A01 T01670037  RH  042%=      5-min Rain = 0
KES1 200217Z 15009KT 17/04 A2979 RMK A01 T01670037  RH  042%=      5-min Rain = 0
KES1 200218Z 16009KT 17/04 A2979 RMK A01 T01670037  RH  042%=      5-min Rain = 0
KES1 200219Z 15008KT 17/04 A2979 RMK A01 T01670037  RH  042%=      5-min Rain = 0
KES1 200220Z 15009KT 17/04 A2979 RMK A01 T01670037  RH  042%=      5-min Rain = 0
KES1 200221Z 16009KT 17/04 A2979 RMK A01 T01670037  RH  042%=      5-min Rain = 0
KES1 200222Z 15008KT 17/04 A2979 RMK A01 T01670037  RH  042%=      5-min Rain = 0
KES1 200223Z 15008KT 17/04 A2979 RMK A01 T01680037  RH  042%=      5-min Rain = 0
KES1 200224Z 15008KT 17/04 A2979 RMK A01 T01680037  RH  042%=      5-min Rain = 0
KES1 200225Z 15009KT 17/04 A2979 RMK A01 T01670037  RH  042%=      5-min Rain = 0
KES1 200226Z 15009KT 17/04 A2979 RMK A01 T01680038  RH  042%=      5-min Rain = 0
KES1 200227Z 16009KT 17/04 A2979 RMK A01 T01670037  RH  042%=      5-min Rain = 0
KES1 200228Z 16009KT 17/04 A2978 RMK A01 T01680037  RH  042%=      5-min Rain = 0
KES1 200229Z 15009KT 17/04 A2978 RMK A01 T01670038  RH  042%=      5-min Rain = 0
KES1 200230Z 16009KT 17/04 A2978 RMK A01 T01680038  RH  042%=      5-min Rain = 0
KES1 200231Z 15009KT 17/04 A2978 RMK A01 T01680038  RH  042%=      5-min Rain = 0
KES1 200232Z 15009KT 17/04 A2978 RMK A01 T01670038  RH  042%=      5-min Rain = 0
KES1 200233Z 16008KT 17/04 A2978 RMK A01 T01670038  RH  042%=      5-min Rain = 0
KES1 200234Z 15008KT 17/04 A2978 RMK A01 T01670038  RH  042%=      5-min Rain = 0
KES1 200235Z 15009KT 17/04 A2978 RMK A01 T01670038  RH  042%=      5-min Rain = 0
KES1 200236Z 15009KT 17/04 A2978 RMK A01 T01660038  RH  042%=      5-min Rain = 0
KES1 200237Z 15008KT 17/04 A2978 RMK A01 T01670039  RH  042%=      5-min Rain = 0
KES1 200238Z 15008KT 17/04 A2978 RMK A01 T01660038  RH  042%=      5-min Rain = 0
KES1 200239Z 15008KT 17/04 A2978 RMK A01 T01670039  RH  043%=      5-min Rain = 0
KES1 200240Z 16008KT 17/04 A2978 RMK A01 T01670039  RH  043%=      5-min Rain = 0
KES1 200241Z 15008KT 17/04 A2978 RMK A01 T01670039  RH  043%=      5-min Rain = 0
KES1 200242Z 15008KT 17/04 A2978 RMK A01 T01660039  RH  043%=      5-min Rain = 0
KES1 200243Z 15008KT 17/04 A2978 RMK A01 T01660039  RH  043%=      5-min Rain = 0
KES1 200244Z 15008KT 17/04 A2978 RMK A01 T01660039  RH  043%=      5-min Rain = 0
KES1 200245Z 15008KT 17/04 A2978 RMK A01 T01650039  RH  043%=      5-min Rain = 0
KES1 200246Z 15008KT 17/04 A2978 RMK A01 T01650040  RH  043%=      5-min Rain = 0
KES1 200247Z 15008KT 17/04 A2978 RMK A01 T01650040  RH  043%=      5-min Rain = 0
KES1 200248Z 15008KT 17/04 A2978 RMK A01 T01650040  RH  043%=      5-min Rain = 0
KES1 200249Z 15008KT 17/04 A2978 RMK A01 T01650040  RH  043%=      5-min Rain = 0
KES1 200250Z 16008KT 16/04 A2978 RMK A01 T01640040  RH  044%=      5-min Rain = 0
KES1 200251Z 15008KT 16/04 A2979 RMK A01 T01640040  RH  044%=      5-min Rain = 0
KES1 200252Z 16008KT 16/04 A2978 RMK A01 T01630040  RH  044%=      5-min Rain = 0
KES1 200253Z 16007KT 16/04 A2978 RMK A01 T01630040  RH  044%=      5-min Rain = 0
KES1 200254Z 15008KT 16/04 A2978 RMK A01 T01630040  RH  044%=      5-min Rain = 0
KES1 200255Z 15008KT 16/04 A2978 RMK A01 T01630040  RH  044%=      5-min Rain = 0
KES1 200256Z 16008KT 16/04 A2978 RMK A01 T01630041  RH  044%=      5-min Rain = 0
KES1 200257Z 16008KT 16/04 A2979 RMK A01 T01630041  RH  044%=      5-min Rain = 0
KES1 200258Z 16008KT 16/04 A2979 RMK A01 T01630041  RH  044%=      5-min Rain = 0
KES1 200259Z 16008KT 16/04 A2979 RMK A01 T01630041  RH  044%=      5-min Rain = 0
KES1 200300Z 16009KT 16/04 A2979 RMK A01 T01620041  RH  045%=      5-min Rain = 0
KES1 200301Z 16008KT 16/04 A2979 RMK A01 T01620041  RH  045%=      5-min Rain = 0
KES1 200302Z 16009KT 16/04 A2979 RMK A01 T01620041  RH  045%=      5-min Rain = 0
KES1 200303Z 16008KT 16/04 A2979 RMK A01 T01620042  RH  045%=      5-min Rain = 0
KES1 200304Z 16007KT 16/04 A2979 RMK A01 T01620041  RH  045%=      5-min Rain = 0
KES1 200305Z 16007KT 16/04 A2979 RMK A01 T01610041  RH  045%=      5-min Rain = 0
KES1 200306Z 16008KT 16/04 A2979 RMK A01 T01600041  RH  045%=      5-min Rain = 0
KES1 200307Z 15009KT 16/04 A2979 RMK A01 T01590041  RH  045%=      5-min Rain = 0
KES1 200308Z 15008KT 16/04 A2979 RMK A01 T01590042  RH  046%=      5-min Rain = 0
KES1 200309Z 15008KT 16/04 A2979 RMK A01 T01580041  RH  046%=      5-min Rain = 0
KES1 200310Z 15008KT 16/04 A2979 RMK A01 T01580042  RH  046%=      5-min Rain = 0
KES1 200311Z 16007KT 16/04 A2979 RMK A01 T01570042  RH  046%=      5-min Rain = 0
KES1 200312Z 16008KT 16/04 A2979 RMK A01 T01570041  RH  046%=      5-min Rain = 0
KES1 200313Z 15007KT 16/04 A2979 RMK A01 T01560041  RH  046%=      5-min Rain = 0
KES1 200314Z 15007KT 16/04 A2979 RMK A01 T01550041  RH  047%=      5-min Rain = 0
KES1 200315Z 15007KT 15/04 A2979 RMK A01 T01540042  RH  047%=      5-min Rain = 0
KES1 200316Z 15008KT 15/04 A2979 RMK A01 T01540042  RH  047%=      5-min Rain = 0
KES1 200317Z 15007KT 15/04 A2979 RMK A01 T01540042  RH  047%=      5-min Rain = 0
KES1 200318Z 15008KT 15/04 A2979 RMK A01 T01530042  RH  047%=      5-min Rain = 0
KES1 200319Z 15007KT 15/04 A2979 RMK A01 T01530042  RH  047%=      5-min Rain = 0
KES1 200320Z 15006KT 15/04 A2979 RMK A01 T01530042  RH  048%=      5-min Rain = 0
KES1 200321Z 15008KT 15/04 A2979 RMK A01 T01530042  RH  048%=      5-min Rain = 0
KES1 200322Z 15007KT 15/04 A2979 RMK A01 T01530042  RH  048%=      5-min Rain = 0
KES1 200323Z 15007KT 15/04 A2979 RMK A01 T01520042  RH  048%=      5-min Rain = 0
KES1 200324Z 15008KT 15/04 A2979 RMK A01 T01520042  RH  048%=      5-min Rain = 0
KES1 200325Z 15008KT 15/04 A2979 RMK A01 T01510042  RH  048%=      5-min Rain = 0
KES1 200326Z 15008KT 15/04 A2979 RMK A01 T01510043  RH  048%=      5-min Rain = 0
KES1 200327Z 15008KT 15/04 A2979 RMK A01 T01520043  RH  048%=      5-min Rain = 0
KES1 200328Z 15007KT 15/04 A2979 RMK A01 T01520043  RH  048%=      5-min Rain = 0
KES1 200329Z 15008KT 15/04 A2979 RMK A01 T01520043  RH  048%=      5-min Rain = 0
KES1 200330Z 15008KT 15/04 A2979 RMK A01 T01520043  RH  048%=      5-min Rain = 0
KES1 200331Z 15008KT 15/04 A2979 RMK A01 T01520043  RH  048%=      5-min Rain = 0
KES1 200332Z 15008KT 15/04 A2979 RMK A01 T01520044  RH  048%=      5-min Rain = 0
KES1 200333Z 15008KT 15/04 A2979 RMK A01 T01520044  RH  048%=      5-min Rain = 0
KES1 200334Z 15008KT 15/04 A2979 RMK A01 T01530044  RH  048%=      5-min Rain = 0
KES1 200335Z 15008KT 15/04 A2979 RMK A01 T01530044  RH  048%=      5-min Rain = 0
KES1 200336Z 15008KT 15/04 A2979 RMK A01 T01530044  RH  048%=      5-min Rain = 0
KES1 200337Z 15008KT 15/04 A2979 RMK A01 T01530044  RH  048%=      5-min Rain = 0
KES1 200338Z 15008KT 15/04 A2979 RMK A01 T01520044  RH  048%=      5-min Rain = 0
KES1 200339Z 15007KT 15/05 A2979 RMK A01 T01520045  RH  049%=      5-min Rain = 0
KES1 200340Z 15008KT 15/05 A2979 RMK A01 T01520045  RH  049%=      5-min Rain = 0
KES1 200341Z 15008KT 15/05 A2979 RMK A01 T01520045  RH  049%=      5-min Rain = 0
KES1 200342Z 15007KT 15/05 A2979 RMK A01 T01520045  RH  049%=      5-min Rain = 0
KES1 200343Z 15007KT 15/05 A2979 RMK A01 T01520045  RH  049%=      5-min Rain = 0
KES1 200344Z 15008KT 15/05 A2979 RMK A01 T01520045  RH  049%=      5-min Rain = 0
KES1 200345Z 15008KT 15/05 A2979 RMK A01 T01520045  RH  049%=      5-min Rain = 0
KES1 200346Z 15008KT 15/05 A2979 RMK A01 T01520046  RH  049%=      5-min Rain = 0
KES1 200347Z 15009KT 15/05 A2979 RMK A01 T01530045  RH  049%=      5-min Rain = 0
KES1 200348Z 15008KT 15/05 A2979 RMK A01 T01530045  RH  049%=      5-min Rain = 0
KES1 200349Z 15008KT 15/05 A2979 RMK A01 T01530046  RH  049%=      5-min Rain = 0
KES1 200350Z 15008KT 15/05 A2979 RMK A01 T01530046  RH  049%=      5-min Rain = 0
KES1 200351Z 15009KT 15/05 A2979 RMK A01 T01530046  RH  049%=      5-min Rain = 0
KES1 200352Z 15008KT 15/05 A2979 RMK A01 T01530046  RH  049%=      5-min Rain = 0
KES1 200353Z 15009KT 15/05 A2979 RMK A01 T01530046  RH  049%=      5-min Rain = 0
KES1 200354Z 15008KT 15/05 A2979 RMK A01 T01530047  RH  049%=      5-min Rain = 0
KES1 200355Z 15009KT 15/05 A2979 RMK A01 T01530046  RH  049%=      5-min Rain = 0
KES1 200356Z 15009KT 15/05 A2979 RMK A01 T01530046  RH  049%=      5-min Rain = 0
KES1 200357Z 15009KT 15/05 A2979 RMK A01 T01530047  RH  049%=      5-min Rain = 0
KES1 200358Z 15009KT 15/05 A2979 RMK A01 T01530047  RH  049%=      5-min Rain = 0
KES1 200359Z 15009KT 15/05 A2979 RMK A01 T01540047  RH  049%=      5-min Rain = 0
KES1 200400Z 15010KT 15/05 A2979 RMK A01 T01540047  RH  049%=      5-min Rain = 0
KES1 200401Z 15010KT 15/05 A2979 RMK A01 T01540047  RH  049%=      5-min Rain = 0
KES1 200402Z 15009KT 15/05 A2979 RMK A01 T01540047  RH  049%=      5-min Rain = 0
KES1 200403Z 15010KT 15/05 A2979 RMK A01 T01540047  RH  049%=      5-min Rain = 0
KES1 200404Z 15010KT 16/05 A2979 RMK A01 T01550047  RH  049%=      5-min Rain = 0
KES1 200405Z 15009KT 16/05 A2979 RMK A01 T01550047  RH  049%=      5-min Rain = 0
KES1 200406Z 15010KT 16/05 A2979 RMK A01 T01550047  RH  049%=      5-min Rain = 0
KES1 200407Z 15009KT 16/05 A2979 RMK A01 T01550048  RH  049%=      5-min Rain = 0
KES1 200408Z 15010KT 16/05 A2979 RMK A01 T01550048  RH  049%=      5-min Rain = 0
KES1 200409Z 15010KT 16/05 A2978 RMK A01 T01550048  RH  049%=      5-min Rain = 0
KES1 200410Z 15009KT 16/05 A2979 RMK A01 T01550047  RH  049%=      5-min Rain = 0
KES1 200411Z 15009KT 16/05 A2979 RMK A01 T01550047  RH  049%=      5-min Rain = 0
KES1 200412Z 15009KT 16/05 A2979 RMK A01 T01550047  RH  049%=      5-min Rain = 0
KES1 200413Z 15010KT 16/05 A2979 RMK A01 T01550048  RH  049%=      5-min Rain = 0
KES1 200414Z 15010KT 15/05 A2979 RMK A01 T01540048  RH  049%=      5-min Rain = 0
KES1 200415Z 15010KT 15/05 A2979 RMK A01 T01540048  RH  049%=      5-min Rain = 0
KES1 200416Z 15009KT 16/05 A2979 RMK A01 T01550048  RH  049%=      5-min Rain = 0
KES1 200417Z 15009KT 16/05 A2979 RMK A01 T01550048  RH  049%=      5-min Rain = 0
KES1 200418Z 15008KT 16/05 A2979 RMK A01 T01550048  RH  049%=      5-min Rain = 0
KES1 200419Z 15008KT 16/05 A2979 RMK A01 T01550048  RH  049%=      5-min Rain = 0
KES1 200420Z 15009KT 15/05 A2979 RMK A01 T01540048  RH  049%=      5-min Rain = 0
KES1 200421Z 15008KT 15/05 A2979 RMK A01 T01540048  RH  049%=      5-min Rain = 0
KES1 200422Z 16008KT 15/05 A2978 RMK A01 T01540048  RH  049%=      5-min Rain = 0
KES1 200423Z 16008KT 15/05 A2978 RMK A01 T01540048  RH  049%=      5-min Rain = 0
KES1 200424Z 16009KT 15/05 A2978 RMK A01 T01540048  RH  049%=      5-min Rain = 0
KES1 200425Z 16009KT 16/05 A2978 RMK A01 T01550049  RH  049%=      5-min Rain = 0
KES1 200426Z 15009KT 16/05 A2978 RMK A01 T01550048  RH  049%=      5-min Rain = 0
KES1 200427Z 16009KT 16/05 A2978 RMK A01 T01550048  RH  049%=      5-min Rain = 0
KES1 200428Z 15010KT 16/05 A2978 RMK A01 T01550049  RH  049%=      5-min Rain = 0
KES1 200429Z 15009KT 16/05 A2978 RMK A01 T01560049  RH  049%=      5-min Rain = 0
KES1 200430Z 15011KT 16/05 A2978 RMK A01 T01560049  RH  049%=      5-min Rain = 0
KES1 200431Z 15011KT 16/05 A2978 RMK A01 T01570050  RH  049%=      5-min Rain = 0
KES1 200432Z 15010KT 16/05 A2978 RMK A01 T01580050  RH  049%=      5-min Rain = 0
KES1 200433Z 15012KT 16/05 A2978 RMK A01 T01580050  RH  049%=      5-min Rain = 0
KES1 200434Z 15011KT 16/05 A2978 RMK A01 T01600051  RH  048%=      5-min Rain = 0
KES1 200435Z 15011KT 16/05 A2978 RMK A01 T01610051  RH  048%=      5-min Rain = 0
KES1 200436Z 15012KT 16/05 A2978 RMK A01 T01620052  RH  048%=      5-min Rain = 0
KES1 200437Z 15010KT 16/05 A2978 RMK A01 T01620051  RH  048%=      5-min Rain = 0
KES1 200438Z 15012KT 16/05 A2978 RMK A01 T01620051  RH  048%=      5-min Rain = 0
KES1 200439Z 15011KT 16/05 A2978 RMK A01 T01620052  RH  048%=      5-min Rain = 0
KES1 200440Z 15012KT 16/05 A2978 RMK A01 T01620052  RH  048%=      5-min Rain = 0
KES1 200441Z 15011KT 16/05 A2978 RMK A01 T01630052  RH  048%=      5-min Rain = 0
KES1 200442Z 15011KT 16/05 A2978 RMK A01 T01630052  RH  048%=      5-min Rain = 0
KES1 200443Z 15011KT 16/05 A2978 RMK A01 T01630052  RH  048%=      5-min Rain = 0
KES1 200444Z 15011KT 16/05 A2978 RMK A01 T01630052  RH  048%=      5-min Rain = 0
KES1 200445Z 16011KT 16/05 A2978 RMK A01 T01630052  RH  048%=      5-min Rain = 0
KES1 200446Z 15011KT 16/05 A2978 RMK A01 T01630052  RH  048%=      5-min Rain = 0
KES1 200447Z 15011KT 16/05 A2978 RMK A01 T01630052  RH  048%=      5-min Rain = 0
KES1 200448Z 16012KT 16/05 A2978 RMK A01 T01630052  RH  048%=      5-min Rain = 0
KES1 200449Z 16012KT 16/05 A2978 RMK A01 T01620052  RH  048%=      5-min Rain = 0
KES1 200450Z 15012KT 16/05 A2978 RMK A01 T01620052  RH  048%=      5-min Rain = 0
KES1 200451Z 15012KT 16/05 A2978 RMK A01 T01620052  RH  048%=      5-min Rain = 0
KES1 200452Z 15011KT 16/05 A2978 RMK A01 T01620052  RH  048%=      5-min Rain = 0
KES1 200453Z 15011KT 16/05 A2978 RMK A01 T01610052  RH  048%=      5-min Rain = 0
KES1 200454Z 15012KT 16/05 A2978 RMK A01 T01610052  RH  048%=      5-min Rain = 0
KES1 200455Z 15011KT 16/05 A2978 RMK A01 T01610052  RH  048%=      5-min Rain = 0
KES1 200456Z 15010KT 16/05 A2978 RMK A01 T01600052  RH  049%=      5-min Rain = 0
KES1 200457Z 15011KT 16/05 A2978 RMK A01 T01600052  RH  049%=      5-min Rain = 0
KES1 200458Z 16011KT 16/05 A2978 RMK A01 T01590052  RH  049%=      5-min Rain = 0
KES1 200459Z 15011KT 16/05 A2978 RMK A01 T01590052  RH  049%=      5-min Rain = 0
KES1 200500Z 15012KT 16/05 A2978 RMK A01 T01590052  RH  049%=      5-min Rain = 0
KES1 200501Z 15012KT 16/05 A2978 RMK A01 T01590052  RH  049%=      5-min Rain = 0
KES1 200502Z 15010KT 16/05 A2978 RMK A01 T01590052  RH  049%=      5-min Rain = 0
KES1 200503Z 15011KT 16/05 A2978 RMK A01 T01590052  RH  049%=      5-min Rain = 0
KES1 200504Z 15011KT 16/05 A2978 RMK A01 T01590052  RH  049%=      5-min Rain = 0
KES1 200505Z 15010KT 16/05 A2978 RMK A01 T01590052  RH  049%=      5-min Rain = 0
KES1 200506Z 15010KT 16/05 A2978 RMK A01 T01590053  RH  049%=      5-min Rain = 0
KES1 200507Z 15010KT 16/05 A2978 RMK A01 T01580052  RH  049%=      5-min Rain = 0
KES1 200508Z 15010KT 16/05 A2978 RMK A01 T01580053  RH  050%=      5-min Rain = 0
KES1 200509Z 15009KT 16/05 A2978 RMK A01 T01580052  RH  050%=      5-min Rain = 0
KES1 200510Z 15010KT 16/05 A2978 RMK A01 T01570053  RH  050%=      5-min Rain = 0
KES1 200511Z 15008KT 16/05 A2978 RMK A01 T01570053  RH  050%=      5-min Rain = 0
KES1 200512Z 15009KT 16/05 A2978 RMK A01 T01580053  RH  050%=      5-min Rain = 0
KES1 200513Z 15010KT 16/05 A2978 RMK A01 T01570053  RH  050%=      5-min Rain = 0
KES1 200514Z 15009KT 16/05 A2978 RMK A01 T01560053  RH  050%=      5-min Rain = 0
KES1 200515Z 15010KT 16/05 A2978 RMK A01 T01570053  RH  050%=      5-min Rain = 0
KES1 200516Z 15010KT 16/05 A2978 RMK A01 T01560053  RH  050%=      5-min Rain = 0
KES1 200517Z 15009KT 16/05 A2978 RMK A01 T01560053  RH  050%=      5-min Rain = 0
KES1 200518Z 16010KT 16/05 A2978 RMK A01 T01560054  RH  050%=      5-min Rain = 0
KES1 200519Z 15010G15KT 16/05 A2978 RMK A01 T01560054  RH  051%=      5-min Rain = 0
KES1 200520Z 16009KT 16/05 A2978 RMK A01 T01570054  RH  051%=      5-min Rain = 0
KES1 200521Z 16010KT 16/06 A2978 RMK A01 T01570055  RH  051%=      5-min Rain = 0
KES1 200522Z 16009KT 16/06 A2978 RMK A01 T01570055  RH  051%=      5-min Rain = 0
KES1 200523Z 16010KT 16/06 A2978 RMK A01 T01580055  RH  051%=      5-min Rain = 0
KES1 200524Z 15010KT 16/06 A2978 RMK A01 T01580055  RH  051%=      5-min Rain = 0
KES1 200525Z 16011KT 16/06 A2978 RMK A01 T01580056  RH  051%=      5-min Rain = 0
KES1 200526Z 15009KT 16/06 A2978 RMK A01 T01580056  RH  051%=      5-min Rain = 0
KES1 200527Z 16011KT 16/06 A2978 RMK A01 T01580056  RH  050%=      5-min Rain = 0
KES1 200528Z 16010KT 16/06 A2978 RMK A01 T01590056  RH  050%=      5-min Rain = 0
KES1 200529Z 15011KT 16/06 A2978 RMK A01 T01590056  RH  051%=      5-min Rain = 0
KES1 200530Z 16010KT 16/06 A2978 RMK A01 T01590056  RH  051%=      5-min Rain = 0
KES1 200531Z 15010KT 16/06 A2978 RMK A01 T01590056  RH  051%=      5-min Rain = 0
KES1 200532Z 16011KT 16/06 A2978 RMK A01 T01580056  RH  051%=      5-min Rain = 0
KES1 200533Z 16011KT 16/06 A2978 RMK A01 T01580056  RH  051%=      5-min Rain = 0
KES1 200534Z 16010KT 16/06 A2978 RMK A01 T01570056  RH  051%=      5-min Rain = 0
KES1 200535Z 16009KT 16/06 A2978 RMK A01 T01570056  RH  051%=      5-min Rain = 0
KES1 200536Z 16009KT 16/06 A2978 RMK A01 T01570056  RH  051%=      5-min Rain = 0
KES1 200537Z 16010KT 16/06 A2978 RMK A01 T01570056  RH  051%=      5-min Rain = 0
KES1 200538Z 16011KT 16/06 A2978 RMK A01 T01560056  RH  051%=      5-min Rain = 0
KES1 200539Z 16010KT 16/06 A2978 RMK A01 T01560057  RH  051%=      5-min Rain = 0
KES1 200540Z 15008KT 16/06 A2978 RMK A01 T01570057  RH  052%=      5-min Rain = 0
KES1 200541Z 15009KT 16/06 A2978 RMK A01 T01560057  RH  052%=      5-min Rain = 0
KES1 200542Z 16010KT 16/06 A2978 RMK A01 T01550057  RH  052%=      5-min Rain = 0
KES1 200543Z 16010KT 16/06 A2978 RMK A01 T01550058  RH  052%=      5-min Rain = 0
KES1 200544Z 16010KT 16/06 A2978 RMK A01 T01550058  RH  052%=      5-min Rain = 0
KES1 200545Z 16010KT 16/06 A2978 RMK A01 T01550058  RH  052%=      5-min Rain = 0
KES1 200546Z 16010KT 16/06 A2978 RMK A01 T01560059  RH  052%=      5-min Rain = 0
KES1 200547Z 16011KT 16/06 A2978 RMK A01 T01560059  RH  052%=      5-min Rain = 0
KES1 200548Z 16010KT 16/06 A2978 RMK A01 T01560059  RH  053%=      5-min Rain = 0
KES1 200549Z 16011KT 16/06 A2978 RMK A01 T01570060  RH  052%=      5-min Rain = 0
KES1 200550Z 16010KT 16/06 A2978 RMK A01 T01570060  RH  052%=      5-min Rain = 0
KES1 200551Z 16012KT 16/06 A2978 RMK A01 T01570060  RH  052%=      5-min Rain = 0
KES1 200552Z 16012KT 16/06 A2978 RMK A01 T01580061  RH  052%=      5-min Rain = 0
KES1 200553Z 16012KT 16/06 A2978 RMK A01 T01580060  RH  052%=      5-min Rain = 0
KES1 200554Z 16011KT 16/06 A2978 RMK A01 T01580061  RH  052%=      5-min Rain = 0
KES1 200555Z 17010KT 16/06 A2978 RMK A01 T01580060  RH  052%=      5-min Rain = 0
KES1 200556Z 16012KT 16/06 A2978 RMK A01 T01580061  RH  052%=      5-min Rain = 0
KES1 200557Z 16012KT 16/06 A2978 RMK A01 T01590061  RH  052%=      5-min Rain = 0
KES1 200558Z 16012KT 16/06 A2978 RMK A01 T01590061  RH  052%=      5-min Rain = 0
KES1 200559Z 16012KT 16/06 A2977 RMK A01 T01590061  RH  052%=      5-min Rain = 0

Page generated in 0.0696 seconds.